Observation data for Persimmon Gap on 06/26/2019      Previous  Date  Next       Current Mesonet Observations  Soil Data  Daily Summary Page  Observations in Plain Language
KPG1 260500Z 02015KT 26/17 A3001 RMK A01 T02550171  RH  060%=      5-min Rain = 0
KPG1 260501Z 02018KT 26/17 A3001 RMK A01 T02550171  RH  060%=      5-min Rain = 0
KPG1 260502Z 02016KT 26/17 A3001 RMK A01 T02550171  RH  060%=      5-min Rain = 0
KPG1 260503Z 02016KT 26/17 A3001 RMK A01 T02550171  RH  060%=      5-min Rain = 0
KPG1 260504Z 02015KT 26/17 A3001 RMK A01 T02550171  RH  060%=      5-min Rain = 0
KPG1 260505Z 03016KT 25/17 A3001 RMK A01 T02540171  RH  060%=      5-min Rain = 0
KPG1 260506Z 02017KT 25/17 A3001 RMK A01 T02540171  RH  060%=      5-min Rain = 0
KPG1 260507Z 02017KT 25/17 A3002 RMK A01 T02540171  RH  060%=      5-min Rain = 0
KPG1 260508Z 03017KT 25/17 A3002 RMK A01 T02540171  RH  060%=      5-min Rain = 0
KPG1 260509Z 02016KT 25/17 A3002 RMK A01 T02540171  RH  060%=      5-min Rain = 0
KPG1 260510Z 03016KT 25/17 A3002 RMK A01 T02540171  RH  060%=      5-min Rain = 0
KPG1 260511Z 02016KT 25/17 A3002 RMK A01 T02530171  RH  060%=      5-min Rain = 0
KPG1 260512Z 02016KT 25/17 A3002 RMK A01 T02530171  RH  060%=      5-min Rain = 0
KPG1 260513Z 02016KT 25/17 A3002 RMK A01 T02530171  RH  060%=      5-min Rain = 0
KPG1 260514Z 02017KT 25/17 A3002 RMK A01 T02530171  RH  060%=      5-min Rain = 0
KPG1 260515Z 02016KT 25/17 A3002 RMK A01 T02530171  RH  060%=      5-min Rain = 0
KPG1 260516Z 03016KT 25/17 A3002 RMK A01 T02530171  RH  060%=      5-min Rain = 0
KPG1 260517Z 03014KT 25/17 A3002 RMK A01 T02520171  RH  060%=      5-min Rain = 0
KPG1 260518Z 02014KT 25/17 A3002 RMK A01 T02520171  RH  061%=      5-min Rain = 0
KPG1 260519Z 02014KT 25/17 A3002 RMK A01 T02520171  RH  061%=      5-min Rain = 0
KPG1 260520Z 02014KT 25/17 A3002 RMK A01 T02520171  RH  061%=      5-min Rain = 0
KPG1 260521Z 03013KT 25/17 A3002 RMK A01 T02520171  RH  061%=      5-min Rain = 0
KPG1 260522Z 03012KT 25/17 A3002 RMK A01 T02520171  RH  061%=      5-min Rain = 0
KPG1 260523Z 03014KT 25/17 A3002 RMK A01 T02510171  RH  061%=      5-min Rain = 0
KPG1 260524Z 03014KT 25/17 A3002 RMK A01 T02510171  RH  061%=      5-min Rain = 0
KPG1 260525Z 03013KT 25/17 A3002 RMK A01 T02510170  RH  061%=      5-min Rain = 0
KPG1 260526Z 03014KT 25/17 A3002 RMK A01 T02510171  RH  061%=      5-min Rain = 0
KPG1 260527Z 04014KT 25/17 A3002 RMK A01 T02510170  RH  061%=      5-min Rain = 0
KPG1 260528Z 03014KT 25/17 A3002 RMK A01 T02510170  RH  061%=      5-min Rain = 0
KPG1 260529Z 03013KT 25/17 A3002 RMK A01 T02510170  RH  061%=      5-min Rain = 0
KPG1 260530Z 03011KT 25/17 A3003 RMK A01 T02510170  RH  061%=      5-min Rain = 0
KPG1 260531Z 04012KT 25/17 A3003 RMK A01 T02510170  RH  061%=      5-min Rain = 0
KPG1 260532Z 04012KT 25/17 A3003 RMK A01 T02510170  RH  061%=      5-min Rain = 0
KPG1 260533Z 04013KT 25/17 A3003 RMK A01 T02500170  RH  061%=      5-min Rain = 0
KPG1 260534Z 04012KT 25/17 A3003 RMK A01 T02500170  RH  061%=      5-min Rain = 0
KPG1 260535Z 04014KT 25/17 A3003 RMK A01 T02500170  RH  061%=      5-min Rain = 0
KPG1 260536Z 03012KT 25/17 A3003 RMK A01 T02500170  RH  061%=      5-min Rain = 0
KPG1 260537Z 04014KT 25/17 A3003 RMK A01 T02500170  RH  061%=      5-min Rain = 0
KPG1 260538Z 03012KT 25/17 A3003 RMK A01 T02500170  RH  061%=      5-min Rain = 0
KPG1 260539Z 04012KT 25/17 A3003 RMK A01 T02500170  RH  061%=      5-min Rain = 0
KPG1 260540Z 03013KT 25/17 A3003 RMK A01 T02500170  RH  061%=      5-min Rain = 0
KPG1 260541Z 04014G19KT 25/17 A3003 RMK A01 T02500170  RH  061%=      5-min Rain = 0
KPG1 260542Z 04015KT 25/17 A3003 RMK A01 T02500170  RH  061%=      5-min Rain = 0
KPG1 260543Z 04013KT 25/17 A3003 RMK A01 T02490170  RH  061%=      5-min Rain = 0
KPG1 260544Z 04013KT 25/17 A3003 RMK A01 T02490170  RH  061%=      5-min Rain = 0
KPG1 260545Z 04012KT 25/17 A3003 RMK A01 T02490170  RH  062%=      5-min Rain = 0
KPG1 260546Z 04012KT 25/17 A3003 RMK A01 T02490170  RH  062%=      5-min Rain = 0
KPG1 260547Z 04013KT 25/17 A3003 RMK A01 T02490170  RH  062%=      5-min Rain = 0
KPG1 260548Z 03013KT 25/17 A3003 RMK A01 T02490171  RH  062%=      5-min Rain = 0
KPG1 260549Z 04012KT 25/17 A3003 RMK A01 T02490170  RH  062%=      5-min Rain = 0
KPG1 260550Z 03011KT 25/17 A3003 RMK A01 T02490171  RH  062%=      5-min Rain = 0
KPG1 260551Z 03011KT 25/17 A3003 RMK A01 T02480170  RH  062%=      5-min Rain = 0
KPG1 260552Z 02011KT 25/17 A3003 RMK A01 T02480170  RH  062%=      5-min Rain = 0
KPG1 260553Z 02012KT 25/17 A3003 RMK A01 T02480170  RH  062%=      5-min Rain = 0
KPG1 260554Z 02012KT 25/17 A3003 RMK A01 T02480171  RH  062%=      5-min Rain = 0
KPG1 260555Z 02013KT 25/17 A3003 RMK A01 T02470170  RH  062%=      5-min Rain = 0
KPG1 260556Z 02012KT 25/17 A3003 RMK A01 T02470170  RH  062%=      5-min Rain = 0
KPG1 260557Z 02012KT 25/17 A3003 RMK A01 T02480170  RH  062%=      5-min Rain = 0
KPG1 260558Z 03012KT 25/17 A3004 RMK A01 T02480170  RH  062%=      5-min Rain = 0
KPG1 260559Z 02011KT 25/17 A3004 RMK A01 T02470171  RH  062%=      5-min Rain = 0
KPG1 260600Z 02010KT 25/17 A3004 RMK A01 T02470170  RH  062%=      5-min Rain = 0
KPG1 260601Z 02013KT 25/17 A3004 RMK A01 T02470171  RH  063%=      5-min Rain = 0
KPG1 260602Z 02010KT 25/17 A3004 RMK A01 T02470171  RH  063%=      5-min Rain = 0
KPG1 260603Z 02011KT 25/17 A3004 RMK A01 T02470171  RH  063%=      5-min Rain = 0
KPG1 260604Z 02013KT 25/17 A3004 RMK A01 T02470171  RH  063%=      5-min Rain = 0
KPG1 260605Z 02012KT 25/17 A3004 RMK A01 T02470171  RH  063%=      5-min Rain = 0
KPG1 260606Z 02011KT 25/17 A3004 RMK A01 T02470171  RH  063%=      5-min Rain = 0
KPG1 260607Z 02012KT 25/17 A3004 RMK A01 T02460171  RH  063%=      5-min Rain = 0
KPG1 260608Z 02011KT 25/17 A3004 RMK A01 T02460170  RH  063%=      5-min Rain = 0
KPG1 260609Z 02012KT 25/17 A3004 RMK A01 T02460171  RH  063%=      5-min Rain = 0
KPG1 260610Z 02012KT 25/17 A3004 RMK A01 T02460171  RH  063%=      5-min Rain = 0
KPG1 260611Z 02012KT 25/17 A3004 RMK A01 T02460171  RH  063%=      5-min Rain = 0
KPG1 260612Z 02011KT 25/17 A3004 RMK A01 T02460171  RH  063%=      5-min Rain = 0
KPG1 260613Z 02011KT 25/17 A3004 RMK A01 T02460171  RH  063%=      5-min Rain = 0
KPG1 260614Z 02010KT 25/17 A3004 RMK A01 T02460171  RH  063%=      5-min Rain = 0
KPG1 260615Z 02009KT 25/17 A3004 RMK A01 T02460171  RH  063%=      5-min Rain = 0
KPG1 260616Z 02009KT 25/17 A3004 RMK A01 T02450171  RH  063%=      5-min Rain = 0
KPG1 260617Z 02010KT 25/17 A3004 RMK A01 T02450171  RH  063%=      5-min Rain = 0
KPG1 260618Z 02010KT 25/17 A3004 RMK A01 T02450171  RH  063%=      5-min Rain = 0
KPG1 260619Z 01008KT 24/17 A3004 RMK A01 T02440171  RH  063%=      5-min Rain = 0
KPG1 260620Z 01009KT 25/17 A3003 RMK A01 T02450171  RH  064%=      5-min Rain = 0
KPG1 260621Z 02008KT 24/17 A3003 RMK A01 T02440171  RH  064%=      5-min Rain = 0
KPG1 260622Z 02010KT 24/17 A3003 RMK A01 T02440171  RH  064%=      5-min Rain = 0
KPG1 260623Z 02008KT 24/17 A3003 RMK A01 T02440171  RH  064%=      5-min Rain = 0
KPG1 260624Z 02007KT 24/17 A3003 RMK A01 T02440171  RH  064%=      5-min Rain = 0
KPG1 260625Z 02008KT 24/17 A3003 RMK A01 T02440171  RH  064%=      5-min Rain = 0
KPG1 260626Z 02007KT 24/17 A3003 RMK A01 T02430171  RH  064%=      5-min Rain = 0
KPG1 260627Z 02008KT 24/17 A3003 RMK A01 T02430171  RH  064%=      5-min Rain = 0
KPG1 260628Z 02008KT 24/17 A3003 RMK A01 T02430171  RH  064%=      5-min Rain = 0
KPG1 260629Z 02008KT 24/17 A3004 RMK A01 T02430171  RH  064%=      5-min Rain = 0
KPG1 260630Z 01009KT 24/17 A3004 RMK A01 T02430171  RH  064%=      5-min Rain = 0
KPG1 260631Z 02008KT 24/17 A3004 RMK A01 T02420171  RH  064%=      5-min Rain = 0
KPG1 260632Z 02009KT 24/17 A3004 RMK A01 T02430171  RH  064%=      5-min Rain = 0
KPG1 260633Z 02010KT 24/17 A3004 RMK A01 T02420171  RH  064%=      5-min Rain = 0
KPG1 260634Z 01011KT 24/17 A3004 RMK A01 T02420171  RH  064%=      5-min Rain = 0
KPG1 260635Z 02009KT 24/17 A3004 RMK A01 T02430171  RH  064%=      5-min Rain = 0
KPG1 260636Z 01009KT 24/17 A3004 RMK A01 T02420171  RH  064%=      5-min Rain = 0
KPG1 260637Z 02008KT 24/17 A3004 RMK A01 T02430171  RH  064%=      5-min Rain = 0
KPG1 260638Z 01010KT 24/17 A3004 RMK A01 T02420171  RH  064%=      5-min Rain = 0
KPG1 260639Z 01009KT 24/17 A3004 RMK A01 T02430171  RH  064%=      5-min Rain = 0
KPG1 260640Z 01009KT 24/17 A3004 RMK A01 T02430171  RH  064%=      5-min Rain = 0
KPG1 260641Z 01012KT 24/17 A3004 RMK A01 T02420171  RH  065%=      5-min Rain = 0
KPG1 260642Z 01011KT 24/17 A3004 RMK A01 T02420171  RH  064%=      5-min Rain = 0
KPG1 260643Z 01011KT 24/17 A3004 RMK A01 T02430171  RH  064%=      5-min Rain = 0
KPG1 260644Z 01011KT 24/17 A3004 RMK A01 T02430171  RH  064%=      5-min Rain = 0
KPG1 260645Z 02012KT 24/17 A3004 RMK A01 T02430171  RH  064%=      5-min Rain = 0
KPG1 260646Z 02012KT 24/17 A3004 RMK A01 T02420171  RH  064%=      5-min Rain = 0
KPG1 260647Z 01011KT 24/17 A3004 RMK A01 T02430171  RH  064%=      5-min Rain = 0
KPG1 260648Z 01010KT 24/17 A3004 RMK A01 T02430171  RH  064%=      5-min Rain = 0
KPG1 260649Z 01011KT 24/17 A3004 RMK A01 T02430171  RH  064%=      5-min Rain = 0
KPG1 260650Z 01011KT 24/17 A3004 RMK A01 T02430171  RH  064%=      5-min Rain = 0
KPG1 260651Z 02012KT 24/17 A3004 RMK A01 T02430171  RH  064%=      5-min Rain = 0
KPG1 260652Z 02010KT 24/17 A3004 RMK A01 T02430171  RH  064%=      5-min Rain = 0
KPG1 260653Z 02011KT 24/17 A3004 RMK A01 T02430171  RH  064%=      5-min Rain = 0
KPG1 260654Z 02010KT 24/17 A3004 RMK A01 T02430171  RH  064%=      5-min Rain = 0
KPG1 260655Z 02012KT 24/17 A3004 RMK A01 T02420171  RH  064%=      5-min Rain = 0
KPG1 260656Z 01010KT 24/17 A3004 RMK A01 T02430171  RH  064%=      5-min Rain = 0
KPG1 260657Z 01011KT 24/17 A3004 RMK A01 T02420171  RH  064%=      5-min Rain = 0
KPG1 260658Z 01011KT 24/17 A3004 RMK A01 T02430171  RH  064%=      5-min Rain = 0
KPG1 260659Z 02013KT 24/17 A3004 RMK A01 T02420170  RH  064%=      5-min Rain = 0
KPG1 260700Z 01012KT 24/17 A3004 RMK A01 T02430171  RH  064%=      5-min Rain = 0
KPG1 260701Z 02012KT 24/17 A3004 RMK A01 T02430170  RH  064%=      5-min Rain = 0
KPG1 260702Z 02011KT 24/17 A3004 RMK A01 T02430171  RH  064%=      5-min Rain = 0
KPG1 260703Z 01012KT 24/17 A3004 RMK A01 T02430171  RH  064%=      5-min Rain = 0
KPG1 260704Z 02011KT 24/17 A3004 RMK A01 T02430171  RH  064%=      5-min Rain = 0
KPG1 260705Z 02010KT 24/17 A3004 RMK A01 T02430171  RH  064%=      5-min Rain = 0
KPG1 260706Z 02015KT 24/17 A3004 RMK A01 T02430171  RH  064%=      5-min Rain = 0
KPG1 260707Z 02012KT 24/17 A3004 RMK A01 T02430171  RH  064%=      5-min Rain = 0
KPG1 260708Z 03012KT 24/17 A3004 RMK A01 T02430171  RH  064%=      5-min Rain = 0
KPG1 260709Z 02012KT 24/17 A3004 RMK A01 T02430171  RH  064%=      5-min Rain = 0
KPG1 260710Z 02011KT 24/17 A3004 RMK A01 T02420171  RH  064%=      5-min Rain = 0
KPG1 260711Z 01011KT 24/17 A3004 RMK A01 T02420171  RH  065%=      5-min Rain = 0
KPG1 260712Z 02011KT 24/17 A3004 RMK A01 T02410171  RH  065%=      5-min Rain = 0
KPG1 260713Z 02011KT 24/17 A3004 RMK A01 T02410170  RH  065%=      5-min Rain = 0
KPG1 260714Z 02012KT 24/17 A3004 RMK A01 T02410170  RH  065%=      5-min Rain = 0
KPG1 260715Z 02012KT 24/17 A3004 RMK A01 T02410170  RH  064%=      5-min Rain = 0
KPG1 260716Z 02012KT 24/17 A3004 RMK A01 T02420170  RH  064%=      5-min Rain = 0
KPG1 260717Z 03011KT 24/17 A3004 RMK A01 T02420170  RH  064%=      5-min Rain = 0
KPG1 260718Z 01012KT 24/17 A3004 RMK A01 T02420170  RH  064%=      5-min Rain = 0
KPG1 260719Z 02013KT 24/17 A3004 RMK A01 T02420171  RH  064%=      5-min Rain = 0
KPG1 260720Z 02011KT 24/17 A3004 RMK A01 T02420170  RH  064%=      5-min Rain = 0
KPG1 260721Z 03011KT 24/17 A3004 RMK A01 T02420170  RH  064%=      5-min Rain = 0
KPG1 260722Z 02010KT 24/17 A3004 RMK A01 T02410171  RH  065%=      5-min Rain = 0
KPG1 260723Z 01011KT 24/17 A3004 RMK A01 T02410171  RH  065%=      5-min Rain = 0
KPG1 260724Z 03011KT 24/17 A3004 RMK A01 T02400171  RH  065%=      5-min Rain = 0
KPG1 260725Z 03009KT 24/17 A3004 RMK A01 T02400171  RH  065%=      5-min Rain = 0
KPG1 260726Z 02011KT 24/17 A3004 RMK A01 T02390171  RH  065%=      5-min Rain = 0
KPG1 260727Z 02012KT 24/17 A3004 RMK A01 T02390171  RH  065%=      5-min Rain = 0
KPG1 260728Z 02014KT 24/17 A3004 RMK A01 T02400170  RH  065%=      5-min Rain = 0
KPG1 260729Z 02013KT 24/17 A3004 RMK A01 T02400170  RH  065%=      5-min Rain = 0
KPG1 260730Z 02012KT 24/17 A3004 RMK A01 T02410171  RH  065%=      5-min Rain = 0
KPG1 260731Z 02012KT 24/17 A3004 RMK A01 T02410170  RH  065%=      5-min Rain = 0
KPG1 260732Z 02010KT 24/17 A3004 RMK A01 T02410170  RH  065%=      5-min Rain = 0
KPG1 260733Z 02013KT 24/17 A3004 RMK A01 T02400170  RH  065%=      5-min Rain = 0
KPG1 260734Z 03013KT 24/17 A3004 RMK A01 T02410171  RH  065%=      5-min Rain = 0
KPG1 260735Z 02012KT 24/17 A3004 RMK A01 T02400171  RH  065%=      5-min Rain = 0
KPG1 260736Z 02013KT 24/17 A3004 RMK A01 T02400171  RH  065%=      5-min Rain = 0
KPG1 260737Z 01012KT 24/17 A3004 RMK A01 T02400170  RH  065%=      5-min Rain = 0
KPG1 260738Z 02012KT 24/17 A3004 RMK A01 T02400170  RH  065%=      5-min Rain = 0
KPG1 260739Z 02013KT 24/17 A3004 RMK A01 T02400170  RH  065%=      5-min Rain = 0
KPG1 260740Z 02013KT 24/17 A3004 RMK A01 T02400170  RH  065%=      5-min Rain = 0
KPG1 260741Z 02014KT 24/17 A3004 RMK A01 T02400170  RH  065%=      5-min Rain = 0
KPG1 260742Z 01012KT 24/17 A3004 RMK A01 T02400170  RH  065%=      5-min Rain = 0
KPG1 260743Z 02013KT 24/17 A3004 RMK A01 T02400170  RH  065%=      5-min Rain = 0
KPG1 260744Z 02015KT 24/17 A3004 RMK A01 T02400170  RH  065%=      5-min Rain = 0
KPG1 260745Z 02013KT 24/17 A3004 RMK A01 T02400170  RH  065%=      5-min Rain = 0
KPG1 260746Z 02013KT 24/17 A3004 RMK A01 T02400170  RH  065%=      5-min Rain = 0
KPG1 260747Z 02012KT 24/17 A3004 RMK A01 T02390170  RH  065%=      5-min Rain = 0
KPG1 260748Z 02012KT 24/17 A3004 RMK A01 T02390170  RH  065%=      5-min Rain = 0
KPG1 260749Z 02014KT 24/17 A3004 RMK A01 T02390170  RH  065%=      5-min Rain = 0
KPG1 260750Z 01012KT 24/17 A3004 RMK A01 T02390170  RH  065%=      5-min Rain = 0
KPG1 260751Z 01012KT 24/17 A3004 RMK A01 T02390170  RH  065%=      5-min Rain = 0
KPG1 260752Z 02014KT 24/17 A3004 RMK A01 T02380170  RH  066%=      5-min Rain = 0
KPG1 260753Z 02013KT 24/17 A3004 RMK A01 T02380170  RH  065%=      5-min Rain = 0
KPG1 260754Z 03012KT 24/17 A3004 RMK A01 T02380170  RH  066%=      5-min Rain = 0
KPG1 260755Z 03012KT 24/17 A3004 RMK A01 T02380170  RH  066%=      5-min Rain = 0
KPG1 260756Z 03011KT 24/17 A3004 RMK A01 T02370170  RH  066%=      5-min Rain = 0
KPG1 260757Z 03011KT 24/17 A3004 RMK A01 T02370170  RH  066%=      5-min Rain = 0
KPG1 260758Z 02011KT 24/17 A3004 RMK A01 T02360170  RH  067%=      5-min Rain = 0
KPG1 260759Z 03010KT 24/17 A3004 RMK A01 T02360171  RH  067%=      5-min Rain = 0
KPG1 260800Z 03011KT 24/17 A3004 RMK A01 T02360170  RH  067%=      5-min Rain = 0
KPG1 260801Z 02011KT 24/17 A3004 RMK A01 T02350170  RH  067%=      5-min Rain = 0
KPG1 260802Z 03012KT 24/17 A3004 RMK A01 T02350170  RH  067%=      5-min Rain = 0
KPG1 260803Z 03010KT 24/17 A3004 RMK A01 T02360170  RH  066%=      5-min Rain = 0
KPG1 260804Z 02011KT 24/17 A3004 RMK A01 T02360170  RH  066%=      5-min Rain = 0
KPG1 260805Z 01012KT 24/17 A3004 RMK A01 T02360170  RH  066%=      5-min Rain = 0
KPG1 260806Z 02012KT 24/17 A3004 RMK A01 T02370170  RH  066%=      5-min Rain = 0
KPG1 260807Z 02011KT 24/17 A3004 RMK A01 T02370170  RH  066%=      5-min Rain = 0
KPG1 260808Z 02010KT 24/17 A3004 RMK A01 T02380170  RH  066%=      5-min Rain = 0
KPG1 260809Z 02010KT 24/17 A3004 RMK A01 T02370170  RH  066%=      5-min Rain = 0
KPG1 260810Z 01010KT 24/17 A3004 RMK A01 T02380170  RH  066%=      5-min Rain = 0
KPG1 260811Z 01009KT 24/17 A3004 RMK A01 T02370170  RH  066%=      5-min Rain = 0
KPG1 260812Z 01010KT 24/17 A3004 RMK A01 T02370170  RH  066%=      5-min Rain = 0
KPG1 260813Z 01011KT 24/17 A3004 RMK A01 T02370171  RH  066%=      5-min Rain = 0
KPG1 260814Z 02010KT 24/17 A3004 RMK A01 T02370170  RH  066%=      5-min Rain = 0
KPG1 260815Z 01011KT 24/17 A3004 RMK A01 T02360170  RH  066%=      5-min Rain = 0
KPG1 260816Z 01011KT 24/17 A3004 RMK A01 T02360170  RH  066%=      5-min Rain = 0
KPG1 260817Z 01010KT 24/17 A3004 RMK A01 T02360170  RH  067%=      5-min Rain = 0
KPG1 260818Z 01012KT 24/17 A3004 RMK A01 T02360170  RH  067%=      5-min Rain = 0
KPG1 260819Z 02013KT 24/17 A3004 RMK A01 T02350170  RH  067%=      5-min Rain = 0
KPG1 260820Z 01011KT 24/17 A3004 RMK A01 T02350170  RH  067%=      5-min Rain = 0
KPG1 260821Z 02011KT 24/17 A3004 RMK A01 T02350170  RH  067%=      5-min Rain = 0
KPG1 260822Z 01011KT 24/17 A3004 RMK A01 T02350170  RH  067%=      5-min Rain = 0
KPG1 260823Z 01011KT 24/17 A3004 RMK A01 T02350170  RH  067%=      5-min Rain = 0
KPG1 260824Z 02011KT 24/17 A3004 RMK A01 T02350170  RH  067%=      5-min Rain = 0
KPG1 260825Z 01011KT 23/17 A3004 RMK A01 T02340170  RH  067%=      5-min Rain = 0
KPG1 260826Z 02012KT 23/17 A3004 RMK A01 T02340169  RH  067%=      5-min Rain = 0
KPG1 260827Z 01012KT 23/17 A3004 RMK A01 T02340170  RH  067%=      5-min Rain = 0
KPG1 260828Z 03013KT 24/17 A3004 RMK A01 T02350170  RH  067%=      5-min Rain = 0
KPG1 260829Z 03012KT 23/17 A3004 RMK A01 T02340170  RH  067%=      5-min Rain = 0
KPG1 260830Z 02011KT 23/17 A3004 RMK A01 T02330170  RH  068%=      5-min Rain = 0
KPG1 260831Z 02012G17KT 23/17 A3004 RMK A01 T02320170  RH  068%=      5-min Rain = 0
KPG1 260832Z 02014KT 23/17 A3004 RMK A01 T02320169  RH  068%=      5-min Rain = 0
KPG1 260833Z 02014KT 23/17 A3004 RMK A01 T02320169  RH  068%=      5-min Rain = 0
KPG1 260834Z 02013KT 23/17 A3004 RMK A01 T02330170  RH  068%=      5-min Rain = 0
KPG1 260835Z 02012KT 23/17 A3004 RMK A01 T02330169  RH  067%=      5-min Rain = 0
KPG1 260836Z 02011KT 23/17 A3004 RMK A01 T02330169  RH  068%=      5-min Rain = 0
KPG1 260837Z 02012KT 23/17 A3004 RMK A01 T02320170  RH  068%=      5-min Rain = 0
KPG1 260838Z 02012KT 23/17 A3004 RMK A01 T02320169  RH  068%=      5-min Rain = 0
KPG1 260839Z 02013KT 23/17 A3004 RMK A01 T02310169  RH  068%=      5-min Rain = 0
KPG1 260840Z 02012KT 23/17 A3004 RMK A01 T02310169  RH  068%=      5-min Rain = 0
KPG1 260841Z 02012KT 23/17 A3004 RMK A01 T02320169  RH  068%=      5-min Rain = 0
KPG1 260842Z 02014KT 23/17 A3004 RMK A01 T02320169  RH  068%=      5-min Rain = 0
KPG1 260843Z 02013KT 23/17 A3004 RMK A01 T02320169  RH  068%=      5-min Rain = 0
KPG1 260844Z 02011KT 23/17 A3004 RMK A01 T02320169  RH  068%=      5-min Rain = 0
KPG1 260845Z 02012KT 23/17 A3004 RMK A01 T02320170  RH  068%=      5-min Rain = 0
KPG1 260846Z 02013KT 23/17 A3004 RMK A01 T02300169  RH  069%=      5-min Rain = 0
KPG1 260847Z 02012KT 23/17 A3004 RMK A01 T02300169  RH  069%=      5-min Rain = 0
KPG1 260848Z 02014KT 23/17 A3004 RMK A01 T02290169  RH  069%=      5-min Rain = 0
KPG1 260849Z 02013KT 23/17 A3003 RMK A01 T02300169  RH  069%=      5-min Rain = 0
KPG1 260850Z 02013KT 23/17 A3003 RMK A01 T02300170  RH  069%=      5-min Rain = 0
KPG1 260851Z 02013KT 23/17 A3003 RMK A01 T02300169  RH  069%=      5-min Rain = 0
KPG1 260852Z 02013KT 23/17 A3003 RMK A01 T02300169  RH  069%=      5-min Rain = 0
KPG1 260853Z 02013KT 23/17 A3004 RMK A01 T02300170  RH  069%=      5-min Rain = 0
KPG1 260854Z 02012KT 23/17 A3004 RMK A01 T02300170  RH  069%=      5-min Rain = 0
KPG1 260855Z 02012KT 23/17 A3004 RMK A01 T02290170  RH  069%=      5-min Rain = 0
KPG1 260856Z 02010KT 23/17 A3004 RMK A01 T02290170  RH  069%=      5-min Rain = 0
KPG1 260857Z 02011KT 23/17 A3004 RMK A01 T02280170  RH  070%=      5-min Rain = 0
KPG1 260858Z 02012KT 23/17 A3004 RMK A01 T02280170  RH  070%=      5-min Rain = 0
KPG1 260859Z 02012KT 23/17 A3004 RMK A01 T02280170  RH  070%=      5-min Rain = 0
KPG1 260900Z 02011KT 23/17 A3004 RMK A01 T02280170  RH  070%=      5-min Rain = 0
KPG1 260901Z 03012KT 23/17 A3004 RMK A01 T02280170  RH  070%=      5-min Rain = 0
KPG1 260902Z 02012KT 23/17 A3004 RMK A01 T02280170  RH  070%=      5-min Rain = 0
KPG1 260903Z 02011KT 23/17 A3004 RMK A01 T02270170  RH  070%=      5-min Rain = 0
KPG1 260904Z 02010KT 23/17 A3004 RMK A01 T02270170  RH  070%=      5-min Rain = 0
KPG1 260905Z 02010KT 23/17 A3004 RMK A01 T02260170  RH  070%=      5-min Rain = 0
KPG1 260906Z 02010KT 23/17 A3004 RMK A01 T02250170  RH  071%=      5-min Rain = 0
KPG1 260907Z 02012KT 23/17 A3004 RMK A01 T02250170  RH  071%=      5-min Rain = 0
KPG1 260908Z 02013KT 23/17 A3004 RMK A01 T02250171  RH  071%=      5-min Rain = 0
KPG1 260909Z 03012KT 23/17 A3004 RMK A01 T02250171  RH  071%=      5-min Rain = 0
KPG1 260910Z 03010KT 23/17 A3004 RMK A01 T02260171  RH  071%=      5-min Rain = 0
KPG1 260911Z 01011KT 23/17 A3004 RMK A01 T02260171  RH  071%=      5-min Rain = 0
KPG1 260912Z 03010KT 23/17 A3004 RMK A01 T02250171  RH  071%=      5-min Rain = 0
KPG1 260913Z 03011KT 23/17 A3004 RMK A01 T02260171  RH  071%=      5-min Rain = 0
KPG1 260914Z 03011KT 23/17 A3004 RMK A01 T02250171  RH  071%=      5-min Rain = 0
KPG1 260915Z 02010KT 23/17 A3004 RMK A01 T02250171  RH  071%=      5-min Rain = 0
KPG1 260916Z 02011KT 23/17 A3004 RMK A01 T02250171  RH  071%=      5-min Rain = 0
KPG1 260917Z 02010KT 23/17 A3004 RMK A01 T02250171  RH  072%=      5-min Rain = 0
KPG1 260918Z 01010KT 23/17 A3004 RMK A01 T02250171  RH  072%=      5-min Rain = 0
KPG1 260919Z 02011KT 23/17 A3004 RMK A01 T02250171  RH  072%=      5-min Rain = 0
KPG1 260920Z 03010KT 23/17 A3004 RMK A01 T02250171  RH  072%=      5-min Rain = 0
KPG1 260921Z 02009KT 23/17 A3004 RMK A01 T02250171  RH  072%=      5-min Rain = 0
KPG1 260922Z 01008KT 23/17 A3004 RMK A01 T02250171  RH  072%=      5-min Rain = 0
KPG1 260923Z 02010KT 23/17 A3004 RMK A01 T02250172  RH  072%=      5-min Rain = 0
KPG1 260924Z 02010KT 23/17 A3004 RMK A01 T02250172  RH  072%=      5-min Rain = 0
KPG1 260925Z 03009KT 23/17 A3004 RMK A01 T02250171  RH  072%=      5-min Rain = 0
KPG1 260926Z 03010KT 22/17 A3004 RMK A01 T02240171  RH  072%=      5-min Rain = 0
KPG1 260927Z 03009KT 22/17 A3004 RMK A01 T02230171  RH  072%=      5-min Rain = 0
KPG1 260928Z 02009KT 22/17 A3004 RMK A01 T02230172  RH  073%=      5-min Rain = 0
KPG1 260929Z 02009KT 22/17 A3004 RMK A01 T02220171  RH  073%=      5-min Rain = 0
KPG1 260930Z 03010KT 22/17 A3004 RMK A01 T02210171  RH  073%=      5-min Rain = 0
KPG1 260931Z 03010KT 22/17 A3004 RMK A01 T02210171  RH  073%=      5-min Rain = 0
KPG1 260932Z 03010KT 22/17 A3004 RMK A01 T02210171  RH  073%=      5-min Rain = 0
KPG1 260933Z 02010KT 22/17 A3004 RMK A01 T02200172  RH  074%=      5-min Rain = 0
KPG1 260934Z 02010KT 22/17 A3004 RMK A01 T02200172  RH  074%=      5-min Rain = 0
KPG1 260935Z 03010KT 22/17 A3004 RMK A01 T02210172  RH  074%=      5-min Rain = 0
KPG1 260936Z 02010KT 22/17 A3004 RMK A01 T02210172  RH  074%=      5-min Rain = 0
KPG1 260937Z 02011KT 22/17 A3004 RMK A01 T02210172  RH  074%=      5-min Rain = 0
KPG1 260938Z 02011KT 22/17 A3004 RMK A01 T02210172  RH  074%=      5-min Rain = 0
KPG1 260939Z 02010KT 22/17 A3004 RMK A01 T02220172  RH  074%=      5-min Rain = 0
KPG1 260940Z 01010KT 22/17 A3004 RMK A01 T02230173  RH  073%=      5-min Rain = 0
KPG1 260941Z 02011KT 22/17 A3004 RMK A01 T02230172  RH  073%=      5-min Rain = 0
KPG1 260942Z 02011KT 22/17 A3004 RMK A01 T02230173  RH  073%=      5-min Rain = 0
KPG1 260943Z 02012KT 22/17 A3004 RMK A01 T02230173  RH  073%=      5-min Rain = 0
KPG1 260944Z 02011KT 22/17 A3004 RMK A01 T02230173  RH  073%=      5-min Rain = 0
KPG1 260945Z 02011KT 22/17 A3004 RMK A01 T02230172  RH  073%=      5-min Rain = 0
KPG1 260946Z 02011KT 22/17 A3004 RMK A01 T02230173  RH  073%=      5-min Rain = 0
KPG1 260947Z 02011KT 22/17 A3003 RMK A01 T02230172  RH  073%=      5-min Rain = 0
KPG1 260948Z 02012KT 22/17 A3003 RMK A01 T02230173  RH  073%=      5-min Rain = 0
KPG1 260949Z 02011KT 22/17 A3003 RMK A01 T02230173  RH  073%=      5-min Rain = 0
KPG1 260950Z 02011KT 22/17 A3003 RMK A01 T02220173  RH  073%=      5-min Rain = 0
KPG1 260951Z 02012KT 22/17 A3003 RMK A01 T02220173  RH  073%=      5-min Rain = 0
KPG1 260952Z 02011KT 22/17 A3003 RMK A01 T02220173  RH  073%=      5-min Rain = 0
KPG1 260953Z 02011KT 22/17 A3004 RMK A01 T02230173  RH  073%=      5-min Rain = 0
KPG1 260954Z 02011KT 22/17 A3004 RMK A01 T02230173  RH  073%=      5-min Rain = 0
KPG1 260955Z 02012KT 22/17 A3003 RMK A01 T02220173  RH  073%=      5-min Rain = 0
KPG1 260956Z 02011KT 22/17 A3003 RMK A01 T02220173  RH  074%=      5-min Rain = 0
KPG1 260957Z 02011KT 22/17 A3003 RMK A01 T02220173  RH  074%=      5-min Rain = 0
KPG1 260958Z 02013KT 22/17 A3003 RMK A01 T02220173  RH  074%=      5-min Rain = 0
KPG1 260959Z 01011KT 22/17 A3003 RMK A01 T02220173  RH  073%=      5-min Rain = 0
KPG1 261000Z 01010KT 22/17 A3003 RMK A01 T02230173  RH  073%=      5-min Rain = 0
KPG1 261001Z 02010KT 22/17 A3003 RMK A01 T02230173  RH  073%=      5-min Rain = 0
KPG1 261002Z 01011KT 22/17 A3003 RMK A01 T02230173  RH  073%=      5-min Rain = 0
KPG1 261003Z 02011KT 22/17 A3004 RMK A01 T02220173  RH  073%=      5-min Rain = 0
KPG1 261004Z 01010KT 22/17 A3004 RMK A01 T02220173  RH  073%=      5-min Rain = 0
KPG1 261005Z 02010KT 22/17 A3004 RMK A01 T02230173  RH  073%=      5-min Rain = 0
KPG1 261006Z 02012KT 22/17 A3004 RMK A01 T02220173  RH  073%=      5-min Rain = 0
KPG1 261007Z 01011KT 22/17 A3004 RMK A01 T02220173  RH  073%=      5-min Rain = 0
KPG1 261008Z 02011KT 22/17 A3004 RMK A01 T02220173  RH  073%=      5-min Rain = 0
KPG1 261009Z 02010KT 22/17 A3004 RMK A01 T02220173  RH  074%=      5-min Rain = 0
KPG1 261010Z 02013KT 22/17 A3004 RMK A01 T02220173  RH  074%=      5-min Rain = 0
KPG1 261011Z 02012KT 22/17 A3004 RMK A01 T02220173  RH  074%=      5-min Rain = 0
KPG1 261012Z 01012KT 22/17 A3004 RMK A01 T02220173  RH  074%=      5-min Rain = 0
KPG1 261013Z 01010KT 22/17 A3004 RMK A01 T02220173  RH  074%=      5-min Rain = 0
KPG1 261014Z 02012KT 22/17 A3004 RMK A01 T02220173  RH  074%=      5-min Rain = 0
KPG1 261015Z 02011KT 22/17 A3004 RMK A01 T02220174  RH  074%=      5-min Rain = 0
KPG1 261016Z 02012KT 22/17 A3004 RMK A01 T02210173  RH  074%=      5-min Rain = 0
KPG1 261017Z 02012KT 22/17 A3004 RMK A01 T02210173  RH  074%=      5-min Rain = 0
KPG1 261018Z 02012KT 22/17 A3004 RMK A01 T02210173  RH  074%=      5-min Rain = 0
KPG1 261019Z 02011KT 22/17 A3004 RMK A01 T02200173  RH  075%=      5-min Rain = 0
KPG1 261020Z 01011KT 22/17 A3004 RMK A01 T02200174  RH  075%=      5-min Rain = 0
KPG1 261021Z 01010KT 22/17 A3004 RMK A01 T02200173  RH  075%=      5-min Rain = 0
KPG1 261022Z 01011KT 22/17 A3004 RMK A01 T02200173  RH  075%=      5-min Rain = 0
KPG1 261023Z 01010KT 22/17 A3004 RMK A01 T02200173  RH  075%=      5-min Rain = 0
KPG1 261024Z 01011KT 22/17 A3004 RMK A01 T02200173  RH  075%=      5-min Rain = 0
KPG1 261025Z 02011KT 22/17 A3004 RMK A01 T02190173  RH  075%=      5-min Rain = 0
KPG1 261026Z 02012KT 22/17 A3004 RMK A01 T02190174  RH  075%=      5-min Rain = 0
KPG1 261027Z 02009KT 22/17 A3004 RMK A01 T02190174  RH  075%=      5-min Rain = 0
KPG1 261028Z 01010KT 22/17 A3004 RMK A01 T02190174  RH  075%=      5-min Rain = 0
KPG1 261029Z 02012KT 22/17 A3004 RMK A01 T02190174  RH  076%=      5-min Rain = 0
KPG1 261030Z 02012KT 22/17 A3004 RMK A01 T02190174  RH  076%=      5-min Rain = 0
KPG1 261031Z 02011KT 22/17 A3004 RMK A01 T02190174  RH  076%=      5-min Rain = 0
KPG1 261032Z 02010KT 22/17 A3004 RMK A01 T02190174  RH  075%=      5-min Rain = 0
KPG1 261033Z 02011KT 22/17 A3004 RMK A01 T02190174  RH  076%=      5-min Rain = 0
KPG1 261034Z 02012KT 22/17 A3004 RMK A01 T02190174  RH  076%=      5-min Rain = 0
KPG1 261035Z 02010KT 22/17 A3004 RMK A01 T02190174  RH  075%=      5-min Rain = 0
KPG1 261036Z 02009KT 22/17 A3004 RMK A01 T02190174  RH  075%=      5-min Rain = 0
KPG1 261037Z 02009KT 22/17 A3004 RMK A01 T02190174  RH  075%=      5-min Rain = 0
KPG1 261038Z 03010KT 22/17 A3004 RMK A01 T02180174  RH  076%=      5-min Rain = 0
KPG1 261039Z 03010KT 22/17 A3004 RMK A01 T02180174  RH  076%=      5-min Rain = 0
KPG1 261040Z 03011KT 22/17 A3004 RMK A01 T02160173  RH  076%=      5-min Rain = 0
KPG1 261041Z 02011KT 22/17 A3004 RMK A01 T02150173  RH  077%=      5-min Rain = 0
KPG1 261042Z 01011KT 22/17 A3004 RMK A01 T02150173  RH  077%=      5-min Rain = 0
KPG1 261043Z 01011KT 22/17 A3004 RMK A01 T02170174  RH  076%=      5-min Rain = 0
KPG1 261044Z 01011KT 22/17 A3004 RMK A01 T02180173  RH  076%=      5-min Rain = 0
KPG1 261045Z 02011KT 22/17 A3004 RMK A01 T02190174  RH  076%=      5-min Rain = 0
KPG1 261046Z 01011KT 22/17 A3004 RMK A01 T02190174  RH  075%=      5-min Rain = 0
KPG1 261047Z 01010KT 22/17 A3004 RMK A01 T02190174  RH  075%=      5-min Rain = 0
KPG1 261048Z 01011KT 22/17 A3005 RMK A01 T02190174  RH  075%=      5-min Rain = 0
KPG1 261049Z 01010KT 22/17 A3005 RMK A01 T02190174  RH  075%=      5-min Rain = 0
KPG1 261050Z 01012KT 22/17 A3005 RMK A01 T02190174  RH  076%=      5-min Rain = 0
KPG1 261051Z 01011KT 22/17 A3005 RMK A01 T02190174  RH  076%=      5-min Rain = 0
KPG1 261052Z 02011KT 22/17 A3005 RMK A01 T02190174  RH  076%=      5-min Rain = 0
KPG1 261053Z 02013KT 22/17 A3005 RMK A01 T02190174  RH  076%=      5-min Rain = 0
KPG1 261054Z 02013KT 22/17 A3005 RMK A01 T02190174  RH  076%=      5-min Rain = 0
KPG1 261055Z 02012KT 22/17 A3005 RMK A01 T02190174  RH  076%=      5-min Rain = 0
KPG1 261056Z 02010KT 22/17 A3005 RMK A01 T02190174  RH  076%=      5-min Rain = 0
KPG1 261057Z 02012KT 22/17 A3005 RMK A01 T02190174  RH  076%=      5-min Rain = 0
KPG1 261058Z 02011KT 22/17 A3005 RMK A01 T02190174  RH  076%=      5-min Rain = 0
KPG1 261059Z 03009KT 22/17 A3005 RMK A01 T02190174  RH  076%=      5-min Rain = 0
KPG1 261100Z 03009KT 22/17 A3005 RMK A01 T02180174  RH  076%=      5-min Rain = 0
KPG1 261101Z 03010KT 22/17 A3005 RMK A01 T02150173  RH  077%=      5-min Rain = 0
KPG1 261102Z 03010KT 21/17 A3005 RMK A01 T02140173  RH  077%=      5-min Rain = 0
KPG1 261103Z 02010KT 21/17 A3005 RMK A01 T02130173  RH  078%=      5-min Rain = 0
KPG1 261104Z 03011KT 21/17 A3005 RMK A01 T02130173  RH  078%=      5-min Rain = 0
KPG1 261105Z 03011KT 21/17 A3005 RMK A01 T02130173  RH  078%=      5-min Rain = 0
KPG1 261106Z 02010KT 21/17 A3005 RMK A01 T02120174  RH  078%=      5-min Rain = 0
KPG1 261107Z 03010KT 21/17 A3005 RMK A01 T02120173  RH  078%=      5-min Rain = 0
KPG1 261108Z 02010KT 21/17 A3006 RMK A01 T02120173  RH  078%=      5-min Rain = 0
KPG1 261109Z 02011KT 21/17 A3006 RMK A01 T02120173  RH  079%=      5-min Rain = 0
KPG1 261110Z 02011KT 21/17 A3006 RMK A01 T02120173  RH  079%=      5-min Rain = 0
KPG1 261111Z 02012KT 21/17 A3006 RMK A01 T02120173  RH  078%=      5-min Rain = 0
KPG1 261112Z 02013KT 21/17 A3006 RMK A01 T02140174  RH  078%=      5-min Rain = 0
KPG1 261113Z 02012KT 22/17 A3006 RMK A01 T02150174  RH  077%=      5-min Rain = 0
KPG1 261114Z 03011KT 22/17 A3006 RMK A01 T02160174  RH  077%=      5-min Rain = 0
KPG1 261115Z 03011KT 22/17 A3006 RMK A01 T02160174  RH  077%=      5-min Rain = 0
KPG1 261116Z 02010KT 22/17 A3006 RMK A01 T02150174  RH  077%=      5-min Rain = 0
KPG1 261117Z 02010KT 22/17 A3006 RMK A01 T02150174  RH  078%=      5-min Rain = 0
KPG1 261118Z 03010KT 22/17 A3006 RMK A01 T02150174  RH  077%=      5-min Rain = 0
KPG1 261119Z 03010KT 21/17 A3006 RMK A01 T02140173  RH  078%=      5-min Rain = 0
KPG1 261120Z 03010KT 21/17 A3006 RMK A01 T02130173  RH  078%=      5-min Rain = 0
KPG1 261121Z 03011KT 21/17 A3006 RMK A01 T02130173  RH  078%=      5-min Rain = 0
KPG1 261122Z 03010KT 21/17 A3006 RMK A01 T02120173  RH  078%=      5-min Rain = 0
KPG1 261123Z 03010KT 21/17 A3006 RMK A01 T02130174  RH  078%=      5-min Rain = 0
KPG1 261124Z 03010KT 21/17 A3006 RMK A01 T02130174  RH  078%=      5-min Rain = 0
KPG1 261125Z 03010KT 21/17 A3006 RMK A01 T02130174  RH  078%=      5-min Rain = 0
KPG1 261126Z 04009KT 21/17 A3006 RMK A01 T02130174  RH  078%=      5-min Rain = 0
KPG1 261127Z 03010KT 21/17 A3006 RMK A01 T02130174  RH  078%=      5-min Rain = 0
KPG1 261128Z 03010KT 21/17 A3006 RMK A01 T02130174  RH  078%=      5-min Rain = 0
KPG1 261129Z 03010KT 21/17 A3006 RMK A01 T02130174  RH  078%=      5-min Rain = 0
KPG1 261130Z 03011KT 21/17 A3006 RMK A01 T02130174  RH  078%=      5-min Rain = 0
KPG1 261131Z 03011KT 21/17 A3007 RMK A01 T02130174  RH  079%=      5-min Rain = 0
KPG1 261132Z 03011KT 21/17 A3007 RMK A01 T02120174  RH  079%=      5-min Rain = 0
KPG1 261133Z 03011KT 21/17 A3007 RMK A01 T02110174  RH  079%=      5-min Rain = 0
KPG1 261134Z 03011KT 21/17 A3007 RMK A01 T02120174  RH  079%=      5-min Rain = 0
KPG1 261135Z 03011KT 21/17 A3007 RMK A01 T02110174  RH  079%=      5-min Rain = 0
KPG1 261136Z 03010KT 21/17 A3007 RMK A01 T02100173  RH  079%=      5-min Rain = 0
KPG1 261137Z 02010KT 21/17 A3007 RMK A01 T02100173  RH  079%=      5-min Rain = 0
KPG1 261138Z 03010KT 21/17 A3007 RMK A01 T02110173  RH  079%=      5-min Rain = 0
KPG1 261139Z 03010KT 21/17 A3007 RMK A01 T02110174  RH  079%=      5-min Rain = 0
KPG1 261140Z 03011KT 21/17 A3007 RMK A01 T02110174  RH  080%=      5-min Rain = 0
KPG1 261141Z 03011KT 21/17 A3007 RMK A01 T02100174  RH  080%=      5-min Rain = 0
KPG1 261142Z 03012KT 21/17 A3007 RMK A01 T02110174  RH  079%=      5-min Rain = 0
KPG1 261143Z 03013KT 21/17 A3007 RMK A01 T02110174  RH  079%=      5-min Rain = 0
KPG1 261144Z 03011KT 21/17 A3007 RMK A01 T02120174  RH  079%=      5-min Rain = 0
KPG1 261145Z 03012KT 21/17 A3007 RMK A01 T02120174  RH  079%=      5-min Rain = 0
KPG1 261146Z 03011KT 21/18 A3007 RMK A01 T02120175  RH  079%=      5-min Rain = 0
KPG1 261147Z 03012KT 21/18 A3007 RMK A01 T02120175  RH  079%=      5-min Rain = 0
KPG1 261148Z 03012KT 21/17 A3007 RMK A01 T02120174  RH  079%=      5-min Rain = 0
KPG1 261149Z 03010KT 21/17 A3007 RMK A01 T02110174  RH  079%=      5-min Rain = 0
KPG1 261150Z 03012KT 21/17 A3007 RMK A01 T02110174  RH  080%=      5-min Rain = 0
KPG1 261151Z 03012KT 21/18 A3007 RMK A01 T02110175  RH  080%=      5-min Rain = 0
KPG1 261152Z 04011KT 21/18 A3007 RMK A01 T02110175  RH  080%=      5-min Rain = 0
KPG1 261153Z 04011KT 21/18 A3007 RMK A01 T02110175  RH  080%=      5-min Rain = 0
KPG1 261154Z 04011KT 21/18 A3007 RMK A01 T02110175  RH  080%=      5-min Rain = 0
KPG1 261155Z 04011KT 21/18 A3007 RMK A01 T02120176  RH  080%=      5-min Rain = 0
KPG1 261156Z 03011KT 21/18 A3007 RMK A01 T02120176  RH  080%=      5-min Rain = 0
KPG1 261157Z 03012KT 21/18 A3008 RMK A01 T02120176  RH  080%=      5-min Rain = 0
KPG1 261158Z 03011KT 21/18 A3008 RMK A01 T02110175  RH  080%=      5-min Rain = 0
KPG1 261159Z 04012KT 21/18 A3008 RMK A01 T02110175  RH  080%=      5-min Rain = 0
KPG1 261200Z 03011KT 21/18 A3008 RMK A01 T02110175  RH  080%=      5-min Rain = 0
KPG1 261201Z 03012KT 21/18 A3008 RMK A01 T02110175  RH  080%=      5-min Rain = 0
KPG1 261202Z 04012KT 21/18 A3008 RMK A01 T02110175  RH  080%=      5-min Rain = 0
KPG1 261203Z 03011KT 21/18 A3008 RMK A01 T02110176  RH  080%=      5-min Rain = 0
KPG1 261204Z 03011KT 21/18 A3008 RMK A01 T02110176  RH  080%=      5-min Rain = 0
KPG1 261205Z 03012KT 21/18 A3008 RMK A01 T02110175  RH  080%=      5-min Rain = 0
KPG1 261206Z 03013KT 21/18 A3008 RMK A01 T02100175  RH  081%=      5-min Rain = 0
KPG1 261207Z 03011KT 21/18 A3008 RMK A01 T02090175  RH  081%=      5-min Rain = 0
KPG1 261208Z 03010KT 21/18 A3008 RMK A01 T02100176  RH  081%=      5-min Rain = 0
KPG1 261209Z 03011KT 21/18 A3008 RMK A01 T02090175  RH  081%=      5-min Rain = 0
KPG1 261210Z 03011KT 21/18 A3008 RMK A01 T02080175  RH  081%=      5-min Rain = 0
KPG1 261211Z 03011KT 21/18 A3008 RMK A01 T02080176  RH  082%=      5-min Rain = 0
KPG1 261212Z 03011KT 21/18 A3008 RMK A01 T02080176  RH  082%=      5-min Rain = 0
KPG1 261213Z 03010KT 21/18 A3008 RMK A01 T02090177  RH  082%=      5-min Rain = 0
KPG1 261214Z 03010KT 21/18 A3008 RMK A01 T02090176  RH  082%=      5-min Rain = 0
KPG1 261215Z 03011KT 21/18 A3008 RMK A01 T02090176  RH  082%=      5-min Rain = 0
KPG1 261216Z 03011KT 21/18 A3008 RMK A01 T02090176  RH  082%=      5-min Rain = 0
KPG1 261217Z 03011KT 21/18 A3008 RMK A01 T02080176  RH  082%=      5-min Rain = 0
KPG1 261218Z 04011KT 21/18 A3008 RMK A01 T02080176  RH  082%=      5-min Rain = 0
KPG1 261219Z 03011KT 21/18 A3008 RMK A01 T02080176  RH  082%=      5-min Rain = 0
KPG1 261220Z 03011KT 21/18 A3008 RMK A01 T02090177  RH  082%=      5-min Rain = 0
KPG1 261221Z 03011KT 21/18 A3008 RMK A01 T02090177  RH  082%=      5-min Rain = 0
KPG1 261222Z 03010KT 21/18 A3008 RMK A01 T02090176  RH  082%=      5-min Rain = 0
KPG1 261223Z 03011KT 21/18 A3008 RMK A01 T02090176  RH  082%=      5-min Rain = 0
KPG1 261224Z 03011KT 21/18 A3009 RMK A01 T02090177  RH  082%=      5-min Rain = 0
KPG1 261225Z 03010KT 21/18 A3009 RMK A01 T02090177  RH  082%=      5-min Rain = 0
KPG1 261226Z 03011KT 21/18 A3009 RMK A01 T02090177  RH  082%=      5-min Rain = 0
KPG1 261227Z 03008KT 21/18 A3009 RMK A01 T02100178  RH  082%=      5-min Rain = 0
KPG1 261228Z 03010KT 21/18 A3009 RMK A01 T02100177  RH  082%=      5-min Rain = 0
KPG1 261229Z 04010KT 21/18 A3009 RMK A01 T02100177  RH  082%=      5-min Rain = 0
KPG1 261230Z 04010KT 21/18 A3009 RMK A01 T02100178  RH  082%=      5-min Rain = 0
KPG1 261231Z 03011KT 21/18 A3009 RMK A01 T02100178  RH  082%=      5-min Rain = 0
KPG1 261232Z 04011KT 21/18 A3009 RMK A01 T02100178  RH  082%=      5-min Rain = 0
KPG1 261233Z 03010KT 21/18 A3009 RMK A01 T02100178  RH  082%=      5-min Rain = 0
KPG1 261234Z 03010KT 21/18 A3009 RMK A01 T02100177  RH  082%=      5-min Rain = 0
KPG1 261235Z 02010KT 21/18 A3009 RMK A01 T02100178  RH  082%=      5-min Rain = 0
KPG1 261236Z 03011KT 21/18 A3009 RMK A01 T02100178  RH  082%=      5-min Rain = 0
KPG1 261237Z 03010KT 21/18 A3009 RMK A01 T02110179  RH  082%=      5-min Rain = 0
KPG1 261238Z 03010KT 21/18 A3009 RMK A01 T02110179  RH  082%=      5-min Rain = 0
KPG1 261239Z 02011KT 21/18 A3009 RMK A01 T02120179  RH  081%=      5-min Rain = 0
KPG1 261240Z 03011KT 21/18 A3009 RMK A01 T02130178  RH  081%=      5-min Rain = 0
KPG1 261241Z 03011KT 21/18 A3009 RMK A01 T02140178  RH  080%=      5-min Rain = 0
KPG1 261242Z 02011KT 21/18 A3009 RMK A01 T02140178  RH  080%=      5-min Rain = 0
KPG1 261243Z 02009KT 21/18 A3009 RMK A01 T02140179  RH  080%=      5-min Rain = 0
KPG1 261244Z 02009KT 22/18 A3009 RMK A01 T02150179  RH  080%=      5-min Rain = 0
KPG1 261245Z 02012KT 22/18 A3009 RMK A01 T02160180  RH  080%=      5-min Rain = 0
KPG1 261246Z 03012KT 22/18 A3009 RMK A01 T02160180  RH  080%=      5-min Rain = 0
KPG1 261247Z 03012KT 22/18 A3009 RMK A01 T02160179  RH  080%=      5-min Rain = 0
KPG1 261248Z 03011KT 22/18 A3009 RMK A01 T02160179  RH  079%=      5-min Rain = 0
KPG1 261249Z 02012KT 22/18 A3009 RMK A01 T02170180  RH  079%=      5-min Rain = 0
KPG1 261250Z 03012KT 22/18 A301 RMK A01 T02170180  RH  079%=      5-min Rain = 0
KPG1 261251Z 03010KT 22/18 A301 RMK A01 T02170180  RH  079%=      5-min Rain = 0
KPG1 261252Z 02011KT 22/18 A301 RMK A01 T02180180  RH  079%=      5-min Rain = 0
KPG1 261253Z 03012KT 22/18 A301 RMK A01 T02180180  RH  079%=      5-min Rain = 0
KPG1 261254Z 03013KT 22/18 A301 RMK A01 T02190180  RH  079%=      5-min Rain = 0
KPG1 261255Z 03012KT 22/18 A301 RMK A01 T02190180  RH  079%=      5-min Rain = 0
KPG1 261256Z 03012KT 22/18 A301 RMK A01 T02190180  RH  079%=      5-min Rain = 0
KPG1 261257Z 03011KT 22/18 A301 RMK A01 T02190180  RH  078%=      5-min Rain = 0
KPG1 261258Z 02013KT 22/18 A301 RMK A01 T02190180  RH  078%=      5-min Rain = 0
KPG1 261259Z 01011KT 22/18 A301 RMK A01 T02190180  RH  078%=      5-min Rain = 0
KPG1 261300Z 02011KT 22/18 A301 RMK A01 T02190181  RH  079%=      5-min Rain = 0
KPG1 261301Z 02012KT 22/18 A301 RMK A01 T02190181  RH  079%=      5-min Rain = 0
KPG1 261302Z 03011KT 22/18 A301 RMK A01 T02190181  RH  079%=      5-min Rain = 0
KPG1 261303Z 03009KT 22/18 A301 RMK A01 T02190181  RH  079%=      5-min Rain = 0
KPG1 261304Z 03011KT 22/18 A301 RMK A01 T02200181  RH  079%=      5-min Rain = 0
KPG1 261305Z 02012KT 22/18 A301 RMK A01 T02200181  RH  078%=      5-min Rain = 0
KPG1 261306Z 02011KT 22/18 A301 RMK A01 T02200181  RH  078%=      5-min Rain = 0
KPG1 261307Z 02011KT 22/18 A301 RMK A01 T02200181  RH  079%=      5-min Rain = 0
KPG1 261308Z 02011KT 22/18 A301 RMK A01 T02190181  RH  079%=      5-min Rain = 0
KPG1 261309Z 03010KT 22/18 A301 RMK A01 T02190181  RH  079%=      5-min Rain = 0
KPG1 261310Z 02011KT 22/18 A301 RMK A01 T02200181  RH  078%=      5-min Rain = 0
KPG1 261311Z 02012KT 22/18 A301 RMK A01 T02210181  RH  078%=      5-min Rain = 0
KPG1 261312Z 02013KT 22/18 A301 RMK A01 T02210181  RH  078%=      5-min Rain = 0
KPG1 261313Z 02011KT 22/18 A301 RMK A01 T02210181  RH  078%=      5-min Rain = 0
KPG1 261314Z 02011KT 22/18 A301 RMK A01 T02210181  RH  078%=      5-min Rain = 0
KPG1 261315Z 02011KT 22/18 A301 RMK A01 T02220181  RH  078%=      5-min Rain = 0
KPG1 261316Z 02009KT 22/18 A301 RMK A01 T02230181  RH  077%=      5-min Rain = 0
KPG1 261317Z 02012KT 22/18 A301 RMK A01 T02230181  RH  077%=      5-min Rain = 0
KPG1 261318Z 03011KT 22/18 A301 RMK A01 T02230181  RH  077%=      5-min Rain = 0
KPG1 261319Z 02010KT 22/18 A301 RMK A01 T02230181  RH  077%=      5-min Rain = 0
KPG1 261320Z 03010KT 22/18 A301 RMK A01 T02240181  RH  077%=      5-min Rain = 0
KPG1 261321Z 03010KT 22/18 A301 RMK A01 T02240181  RH  077%=      5-min Rain = 0
KPG1 261322Z 02011KT 23/18 A301 RMK A01 T02250181  RH  076%=      5-min Rain = 0
KPG1 261323Z 03008KT 23/18 A301 RMK A01 T02250182  RH  076%=      5-min Rain = 0
KPG1 261324Z 03009KT 23/18 A301 RMK A01 T02250182  RH  077%=      5-min Rain = 0
KPG1 261325Z 03009KT 23/18 A301 RMK A01 T02260181  RH  076%=      5-min Rain = 0
KPG1 261326Z 04009KT 23/18 A301 RMK A01 T02260181  RH  076%=      5-min Rain = 0
KPG1 261327Z 04010KT 23/18 A301 RMK A01 T02260181  RH  076%=      5-min Rain = 0
KPG1 261328Z 04010KT 23/18 A301 RMK A01 T02260181  RH  076%=      5-min Rain = 0
KPG1 261329Z 04009KT 23/18 A301 RMK A01 T02260181  RH  076%=      5-min Rain = 0
KPG1 261330Z 05009KT 23/18 A301 RMK A01 T02260181  RH  076%=      5-min Rain = 0
KPG1 261331Z 05010KT 23/18 A3011 RMK A01 T02260181  RH  076%=      5-min Rain = 0
KPG1 261332Z 03007KT 23/18 A3011 RMK A01 T02260182  RH  076%=      5-min Rain = 0
KPG1 261333Z 04007KT 23/18 A3011 RMK A01 T02280184  RH  076%=      5-min Rain = 0
KPG1 261334Z 04009KT 23/18 A3011 RMK A01 T02290183  RH  075%=      5-min Rain = 0
KPG1 261335Z 04010KT 23/18 A3011 RMK A01 T02300182  RH  074%=      5-min Rain = 0
KPG1 261336Z 04009KT 23/18 A3011 RMK A01 T02290181  RH  074%=      5-min Rain = 0
KPG1 261337Z 04009KT 23/18 A3011 RMK A01 T02290182  RH  075%=      5-min Rain = 0
KPG1 261338Z 04008KT 23/18 A3011 RMK A01 T02300182  RH  074%=      5-min Rain = 0
KPG1 261339Z 03009KT 23/18 A3011 RMK A01 T02300181  RH  074%=      5-min Rain = 0
KPG1 261340Z 03008KT 23/18 A3011 RMK A01 T02300181  RH  074%=      5-min Rain = 0
KPG1 261341Z 04007KT 23/18 A3011 RMK A01 T02300181  RH  074%=      5-min Rain = 0
KPG1 261342Z 04009KT 23/18 A3011 RMK A01 T02300181  RH  074%=      5-min Rain = 0
KPG1 261343Z 04008KT 23/18 A3011 RMK A01 T02300182  RH  074%=      5-min Rain = 0
KPG1 261344Z 04008KT 23/18 A3011 RMK A01 T02310182  RH  074%=      5-min Rain = 0
KPG1 261345Z 04007KT 23/18 A3011 RMK A01 T02310182  RH  074%=      5-min Rain = 0
KPG1 261346Z 02007KT 23/18 A3011 RMK A01 T02320182  RH  073%=      5-min Rain = 0
KPG1 261347Z 04008KT 23/18 A3011 RMK A01 T02320182  RH  073%=      5-min Rain = 0
KPG1 261348Z 03007KT 23/18 A3011 RMK A01 T02330182  RH  073%=      5-min Rain = 0
KPG1 261349Z 03008KT 23/18 A3011 RMK A01 T02330182  RH  073%=      5-min Rain = 0
KPG1 261350Z 04008KT 23/18 A3011 RMK A01 T02330181  RH  073%=      5-min Rain = 0
KPG1 261351Z 03008KT 23/18 A3011 RMK A01 T02330182  RH  073%=      5-min Rain = 0
KPG1 261352Z 03007KT 23/18 A3011 RMK A01 T02330182  RH  073%=      5-min Rain = 0
KPG1 261353Z 02006KT 23/18 A3011 RMK A01 T02330183  RH  074%=      5-min Rain = 0
KPG1 261354Z 03006KT 23/18 A3011 RMK A01 T02340184  RH  073%=      5-min Rain = 0
KPG1 261355Z 04008KT 24/18 A3011 RMK A01 T02370184  RH  072%=      5-min Rain = 0
KPG1 261356Z 03008KT 24/18 A3011 RMK A01 T02370183  RH  072%=      5-min Rain = 0
KPG1 261357Z 03008KT 24/18 A3011 RMK A01 T02350182  RH  072%=      5-min Rain = 0
KPG1 261358Z 03007KT 23/18 A3011 RMK A01 T02340182  RH  072%=      5-min Rain = 0
KPG1 261359Z 03007KT 24/18 A3011 RMK A01 T02360182  RH  072%=      5-min Rain = 0
KPG1 261400Z 04007KT 24/18 A3011 RMK A01 T02350182  RH  072%=      5-min Rain = 0
KPG1 261401Z 03006KT 24/18 A3011 RMK A01 T02350182  RH  072%=      5-min Rain = 0
KPG1 261402Z 03007KT 24/18 A3011 RMK A01 T02360182  RH  072%=      5-min Rain = 0
KPG1 261403Z 03007KT 24/18 A3011 RMK A01 T02360181  RH  071%=      5-min Rain = 0
KPG1 261404Z 03005KT 24/18 A3011 RMK A01 T02360182  RH  072%=      5-min Rain = 0
KPG1 261405Z 04006KT 24/18 A3011 RMK A01 T02360181  RH  071%=      5-min Rain = 0
KPG1 261406Z 03006KT 24/18 A3011 RMK A01 T02370181  RH  071%=      5-min Rain = 0
KPG1 261407Z 03006KT 24/18 A3011 RMK A01 T02370181  RH  071%=      5-min Rain = 0
KPG1 261408Z 01005KT 24/18 A3011 RMK A01 T02370182  RH  071%=      5-min Rain = 0
KPG1 261409Z 01005KT 24/18 A3011 RMK A01 T02380181  RH  070%=      5-min Rain = 0
KPG1 261410Z 01005KT 24/18 A3011 RMK A01 T02380181  RH  071%=      5-min Rain = 0
KPG1 261411Z 00005KT 24/18 A3011 RMK A01 T02370181  RH  071%=      5-min Rain = 0
KPG1 261412Z 00004KT 24/18 A3011 RMK A01 T02370180  RH  070%=      5-min Rain = 0
KPG1 261413Z 35003KT 24/18 A3011 RMK A01 T02370181  RH  071%=      5-min Rain = 0
KPG1 261414Z 01002KT 24/18 A3011 RMK A01 T02370181  RH  071%=      5-min Rain = 0
KPG1 261415Z 01004KT 24/18 A3011 RMK A01 T02400182  RH  070%=      5-min Rain = 0
KPG1 261416Z 35003KT 24/18 A3011 RMK A01 T02400180  RH  069%=      5-min Rain = 0
KPG1 261417Z 35004KT 24/18 A3011 RMK A01 T02400180  RH  069%=      5-min Rain = 0
KPG1 261418Z 34004KT 24/18 A3011 RMK A01 T02400181  RH  069%=      5-min Rain = 0
KPG1 261419Z 36004KT 24/18 A3011 RMK A01 T02400180  RH  069%=      5-min Rain = 0
KPG1 261420Z 34001KT 24/18 A3011 RMK A01 T02410179  RH  068%=      5-min Rain = 0
KPG1 261421Z 00003KT 24/18 A3011 RMK A01 T02420180  RH  068%=      5-min Rain = 0
KPG1 261422Z 01002KT 24/18 A3011 RMK A01 T02430179  RH  068%=      5-min Rain = 0
KPG1 261423Z 00001KT 24/18 A3011 RMK A01 T02440177  RH  066%=      5-min Rain = 0
KPG1 261424Z 04002KT 24/18 A3011 RMK A01 T02440179  RH  067%=      5-min Rain = 0
KPG1 261425Z 04004KT 25/18 A3011 RMK A01 T02460180  RH  067%=      5-min Rain = 0
KPG1 261426Z 04002KT 25/18 A3011 RMK A01 T02460179  RH  066%=      5-min Rain = 0
KPG1 261427Z 07002KT 25/18 A3011 RMK A01 T02460179  RH  066%=      5-min Rain = 0
KPG1 261428Z 08002KT 25/18 A3011 RMK A01 T02450177  RH  066%=      5-min Rain = 0
KPG1 261429Z 11001KT 25/18 A3011 RMK A01 T02450176  RH  065%=      5-min Rain = 0
KPG1 261430Z 12002KT 25/18 A3011 RMK A01 T02450176  RH  066%=      5-min Rain = 0
KPG1 261431Z 13002KT 25/18 A3011 RMK A01 T02450177  RH  066%=      5-min Rain = 0
KPG1 261432Z 13003KT 24/18 A3011 RMK A01 T02440176  RH  066%=      5-min Rain = 0
KPG1 261433Z 14002KT 25/18 A3011 RMK A01 T02450176  RH  065%=      5-min Rain = 0
KPG1 261434Z 12003KT 25/17 A3011 RMK A01 T02470174  RH  064%=      5-min Rain = 0
KPG1 261435Z 12003KT 25/17 A3011 RMK A01 T02480174  RH  064%=      5-min Rain = 0
KPG1 261436Z 12003KT 25/17 A3011 RMK A01 T02480174  RH  063%=      5-min Rain = 0
KPG1 261437Z 12003KT 25/18 A3011 RMK A01 T02480175  RH  064%=      5-min Rain = 0
KPG1 261438Z 12002KT 25/18 A3011 RMK A01 T02480176  RH  064%=      5-min Rain = 0
KPG1 261439Z 18003KT 25/18 A3011 RMK A01 T02500177  RH  064%=      5-min Rain = 0
KPG1 261440Z 18002KT 25/17 A3011 RMK A01 T02510172  RH  062%=      5-min Rain = 0
KPG1 261441Z 21002KT 25/17 A3011 RMK A01 T02510173  RH  062%=      5-min Rain = 0
KPG1 261442Z 20002KT 25/17 A3011 RMK A01 T02500173  RH  062%=      5-min Rain = 0
KPG1 261443Z 14003KT 25/17 A3011 RMK A01 T02490174  RH  063%=      5-min Rain = 0
KPG1 261444Z 12003KT 25/17 A3011 RMK A01 T02500174  RH  063%=      5-min Rain = 0
KPG1 261445Z 14004KT 25/18 A3011 RMK A01 T02500175  RH  063%=      5-min Rain = 0
KPG1 261446Z 14003KT 25/17 A3011 RMK A01 T02500174  RH  063%=      5-min Rain = 0
KPG1 261447Z 14001KT 25/18 A3011 RMK A01 T02500175  RH  063%=      5-min Rain = 0
KPG1 261448Z 11002KT 25/17 A3011 RMK A01 T02510173  RH  062%=      5-min Rain = 0
KPG1 261449Z 13004KT 25/18 A3011 RMK A01 T02540177  RH  062%=      5-min Rain = 0
KPG1 261450Z 11004KT 26/17 A3011 RMK A01 T02550174  RH  061%=      5-min Rain = 0
KPG1 261451Z 14003KT 25/18 A3011 RMK A01 T02530175  RH  062%=      5-min Rain = 0
KPG1 261452Z 16002KT 25/17 A3011 RMK A01 T02540174  RH  061%=      5-min Rain = 0
KPG1 261453Z 16001KT 25/17 A3011 RMK A01 T02540174  RH  061%=      5-min Rain = 0
KPG1 261454Z 20002KT 26/17 A3011 RMK A01 T02550174  RH  061%=      5-min Rain = 0
KPG1 261455Z 20003KT 26/17 A3011 RMK A01 T02560174  RH  060%=      5-min Rain = 0
KPG1 261456Z 23002KT 26/17 A3011 RMK A01 T02550173  RH  061%=      5-min Rain = 0
KPG1 261457Z 21002KT 25/18 A3011 RMK A01 T02530175  RH  062%=      5-min Rain = 0
KPG1 261458Z 20002KT 25/18 A3011 RMK A01 T02530175  RH  062%=      5-min Rain = 0
KPG1 261459Z 17001KT 25/17 A3011 RMK A01 T02530173  RH  061%=      5-min Rain = 0
KPG1 261500Z 07000KT 25/17 A3011 RMK A01 T02530173  RH  061%=      5-min Rain = 0
KPG1 261501Z 10001KT 25/17 A3011 RMK A01 T02530172  RH  061%=      5-min Rain = 0
KPG1 261502Z 03001KT 25/17 A3011 RMK A01 T02530172  RH  061%=      5-min Rain = 0
KPG1 261503Z 05001KT 25/17 A3011 RMK A01 T02530172  RH  061%=      5-min Rain = 0
KPG1 261504Z 11002KT 26/17 A3011 RMK A01 T02550174  RH  061%=      5-min Rain = 0
KPG1 261505Z 17000KT 26/18 A3011 RMK A01 T02560175  RH  061%=      5-min Rain = 0
KPG1 261506Z 23001KT 26/17 A3011 RMK A01 T02580174  RH  060%=      5-min Rain = 0
KPG1 261507Z 19001KT 26/17 A3011 RMK A01 T02580174  RH  060%=      5-min Rain = 0
KPG1 261508Z 18001KT 26/17 A3011 RMK A01 T02560174  RH  060%=      5-min Rain = 0
KPG1 261509Z 26001KT 25/17 A3011 RMK A01 T02540174  RH  061%=      5-min Rain = 0
KPG1 261510Z 27003KT 25/17 A3011 RMK A01 T02540174  RH  061%=      5-min Rain = 0
KPG1 261511Z 25002KT 25/17 A3011 RMK A01 T02540174  RH  061%=      5-min Rain = 0
KPG1 261512Z 22002KT 26/18 A3011 RMK A01 T02550176  RH  062%=      5-min Rain = 0
KPG1 261513Z 12003KT 26/18 A3011 RMK A01 T02570175  RH  060%=      5-min Rain = 0
KPG1 261514Z 11004KT 26/17 A3011 RMK A01 T02580173  RH  059%=      5-min Rain = 0
KPG1 261515Z 11002KT 26/17 A3011 RMK A01 T02580172  RH  059%=      5-min Rain = 0
KPG1 261516Z 09002KT 26/17 A3011 RMK A01 T02580173  RH  059%=      5-min Rain = 0
KPG1 261517Z 18001KT 26/17 A3011 RMK A01 T02580171  RH  059%=      5-min Rain = 0
KPG1 261518Z 20000KT 26/17 A3011 RMK A01 T02590171  RH  059%=      5-min Rain = 0
KPG1 261519Z 23001KT 26/17 A3011 RMK A01 T02590174  RH  059%=      5-min Rain = 0
KPG1 261520Z 19003KT 26/17 A3011 RMK A01 T02600173  RH  058%=      5-min Rain = 0
KPG1 261521Z 21002KT 26/17 A3011 RMK A01 T02610173  RH  059%=      5-min Rain = 0
KPG1 261522Z 23001KT 26/17 A3011 RMK A01 T02600173  RH  058%=      5-min Rain = 0
KPG1 261523Z 25001KT 26/17 A3011 RMK A01 T02600173  RH  058%=      5-min Rain = 0
KPG1 261524Z 12002KT 26/17 A3011 RMK A01 T02620174  RH  059%=      5-min Rain = 0
KPG1 261525Z 13007KT 26/18 A3011 RMK A01 T02640176  RH  058%=      5-min Rain = 0
KPG1 261526Z 13006KT 27/17 A3011 RMK A01 T02650173  RH  057%=      5-min Rain = 0
KPG1 261527Z 14005KT 26/17 A3011 RMK A01 T02640174  RH  058%=      5-min Rain = 0
KPG1 261528Z 14004KT 27/17 A3011 RMK A01 T02650174  RH  057%=      5-min Rain = 0
KPG1 261529Z 15003KT 27/17 A3011 RMK A01 T02660172  RH  056%=      5-min Rain = 0
KPG1 261530Z 15003KT 27/17 A3011 RMK A01 T02660173  RH  057%=      5-min Rain = 0
KPG1 261531Z 15002KT 27/17 A3011 RMK A01 T02670171  RH  056%=      5-min Rain = 0
KPG1 261532Z 15002KT 27/17 A3011 RMK A01 T02670173  RH  056%=      5-min Rain = 0
KPG1 261533Z 15005KT 27/17 A3011 RMK A01 T02670173  RH  056%=      5-min Rain = 0
KPG1 261534Z 13007KT 27/17 A3011 RMK A01 T02670173  RH  056%=      5-min Rain = 0
KPG1 261535Z 12006KT 27/17 A3011 RMK A01 T02660172  RH  056%=      5-min Rain = 0
KPG1 261536Z 13005KT 27/17 A3011 RMK A01 T02650173  RH  057%=      5-min Rain = 0
KPG1 261537Z 13002KT 27/17 A3011 RMK A01 T02650170  RH  056%=      5-min Rain = 0
KPG1 261538Z 13003KT 27/17 A3011 RMK A01 T02650172  RH  057%=      5-min Rain = 0
KPG1 261539Z 13005KT 27/17 A3011 RMK A01 T02670174  RH  057%=      5-min Rain = 0
KPG1 261540Z 16002KT 27/17 A3011 RMK A01 T02670172  RH  056%=      5-min Rain = 0
KPG1 261541Z 19005KT 27/17 A3011 RMK A01 T02670174  RH  057%=      5-min Rain = 0
KPG1 261542Z 16004KT 27/17 A3011 RMK A01 T02680173  RH  056%=      5-min Rain = 0
KPG1 261543Z 19005KT 27/17 A3011 RMK A01 T02680174  RH  057%=      5-min Rain = 0
KPG1 261544Z 19004KT 27/17 A3011 RMK A01 T02680174  RH  056%=      5-min Rain = 0
KPG1 261545Z 22004KT 27/17 A3011 RMK A01 T02670173  RH  056%=      5-min Rain = 0
KPG1 261546Z 21004KT 27/17 A3011 RMK A01 T02660173  RH  056%=      5-min Rain = 0
KPG1 261547Z 21003KT 27/17 A3011 RMK A01 T02660173  RH  057%=      5-min Rain = 0
KPG1 261548Z 21002KT 27/17 A3011 RMK A01 T02660171  RH  056%=      5-min Rain = 0
KPG1 261549Z 20004G10KT 27/17 A3011 RMK A01 T02660172  RH  057%=      5-min Rain = 0
KPG1 261550Z 17005KT 27/18 A3011 RMK A01 T02670176  RH  057%=      5-min Rain = 0
KPG1 261551Z 16003KT 27/18 A3011 RMK A01 T02690177  RH  057%=      5-min Rain = 0
KPG1 261552Z 17003KT 27/18 A3011 RMK A01 T02720177  RH  056%=      5-min Rain = 0
KPG1 261553Z 16001KT 27/17 A3011 RMK A01 T02720173  RH  055%=      5-min Rain = 0
KPG1 261554Z 22002KT 27/17 A3011 RMK A01 T02690174  RH  056%=      5-min Rain = 0
KPG1 261555Z 16002KT 27/18 A3011 RMK A01 T02690175  RH  057%=      5-min Rain = 0
KPG1 261556Z 13002KT 27/18 A3011 RMK A01 T02710178  RH  056%=      5-min Rain = 0
KPG1 261557Z 17002KT 28/18 A3011 RMK A01 T02750179  RH  056%=      5-min Rain = 0
KPG1 261558Z 14002KT 28/18 A3011 RMK A01 T02770176  RH  054%=      5-min Rain = 0
KPG1 261559Z 12003KT 28/18 A3011 RMK A01 T02750175  RH  054%=      5-min Rain = 0
KPG1 261600Z 12002KT 27/17 A3011 RMK A01 T02730174  RH  055%=      5-min Rain = 0
KPG1 261601Z 14002KT 27/17 A3011 RMK A01 T02700174  RH  056%=      5-min Rain = 0
KPG1 261602Z 22004KT 27/18 A3011 RMK A01 T02710175  RH  056%=      5-min Rain = 0
KPG1 261603Z 22004KT 27/18 A3011 RMK A01 T02720175  RH  055%=      5-min Rain = 0
KPG1 261604Z 19005KT 27/18 A3011 RMK A01 T02720176  RH  056%=      5-min Rain = 0
KPG1 261605Z 16004KT 27/18 A3011 RMK A01 T02720175  RH  055%=      5-min Rain = 0
KPG1 261606Z 19004KT 27/18 A3011 RMK A01 T02730175  RH  055%=      5-min Rain = 0
KPG1 261607Z 19006KT 27/18 A3011 RMK A01 T02740175  RH  055%=      5-min Rain = 0
KPG1 261608Z 18007KT 28/18 A3011 RMK A01 T02770175  RH  054%=      5-min Rain = 0
KPG1 261609Z 18006KT 28/18 A3011 RMK A01 T02770175  RH  054%=      5-min Rain = 0
KPG1 261610Z 18005KT 28/17 A3011 RMK A01 T02750174  RH  054%=      5-min Rain = 0
KPG1 261611Z 17003KT 27/17 A3011 RMK A01 T02740174  RH  054%=      5-min Rain = 0
KPG1 261612Z 16003KT 27/17 A3011 RMK A01 T02740172  RH  054%=      5-min Rain = 0
KPG1 261613Z 15002KT 27/17 A3011 RMK A01 T02740171  RH  053%=      5-min Rain = 0
KPG1 261614Z 14002KT 27/17 A301 RMK A01 T02730170  RH  053%=      5-min Rain = 0
KPG1 261615Z 11001KT 27/17 A301 RMK A01 T02740169  RH  053%=      5-min Rain = 0
KPG1 261616Z 23001KT 28/17 A301 RMK A01 T02750171  RH  053%=      5-min Rain = 0
KPG1 261617Z 24003KT 28/17 A301 RMK A01 T02760172  RH  053%=      5-min Rain = 0
KPG1 261618Z 20005KT 28/17 A301 RMK A01 T02770174  RH  053%=      5-min Rain = 0
KPG1 261619Z 20005KT 28/17 A301 RMK A01 T02770173  RH  053%=      5-min Rain = 0
KPG1 261620Z 22005KT 28/17 A301 RMK A01 T02770173  RH  053%=      5-min Rain = 0
KPG1 261621Z 23001KT 28/17 A301 RMK A01 T02760172  RH  053%=      5-min Rain = 0
KPG1 261622Z 06000KT 28/17 A301 RMK A01 T02770171  RH  053%=      5-min Rain = 0
KPG1 261623Z 20001KT 28/17 A3011 RMK A01 T02770172  RH  053%=      5-min Rain = 0
KPG1 261624Z 21005KT 28/17 A3011 RMK A01 T02780173  RH  053%=      5-min Rain = 0
KPG1 261625Z 21004KT 28/17 A3011 RMK A01 T02790171  RH  052%=      5-min Rain = 0
KPG1 261626Z 24002KT 28/17 A3011 RMK A01 T02770170  RH  052%=      5-min Rain = 0
KPG1 261627Z 17000KT 28/17 A301 RMK A01 T02750171  RH  053%=      5-min Rain = 0
KPG1 261628Z 17002KT 28/17 A301 RMK A01 T02750171  RH  053%=      5-min Rain = 0
KPG1 261629Z 20002KT 28/17 A3011 RMK A01 T02790173  RH  053%=      5-min Rain = 0
KPG1 261630Z 20006KT 28/17 A3011 RMK A01 T02820173  RH  052%=      5-min Rain = 0
KPG1 261631Z 21006KT 28/17 A3011 RMK A01 T02820173  RH  052%=      5-min Rain = 0
KPG1 261632Z 22005KT 28/17 A3011 RMK A01 T02810173  RH  052%=      5-min Rain = 0
KPG1 261633Z 21004KT 28/17 A3011 RMK A01 T02800171  RH  052%=      5-min Rain = 0
KPG1 261634Z 21005KT 28/17 A3011 RMK A01 T02800171  RH  052%=      5-min Rain = 0
KPG1 261635Z 21004KT 28/17 A3011 RMK A01 T02800171  RH  052%=      5-min Rain = 0
KPG1 261636Z 16003KT 28/17 A3011 RMK A01 T02790171  RH  052%=      5-min Rain = 0
KPG1 261637Z 15003KT 28/17 A3011 RMK A01 T02800170  RH  051%=      5-min Rain = 0
KPG1 261638Z 18003KT 28/17 A3011 RMK A01 T02820169  RH  050%=      5-min Rain = 0
KPG1 261639Z 15003KT 28/17 A3011 RMK A01 T02830170  RH  050%=      5-min Rain = 0
KPG1 261640Z 11004KT 29/17 A3011 RMK A01 T02850169  RH  049%=      5-min Rain = 0
KPG1 261641Z 09002KT 29/17 A3011 RMK A01 T02860170  RH  049%=      5-min Rain = 0
KPG1 261642Z 03002KT 29/17 A3011 RMK A01 T02870168  RH  049%=      5-min Rain = 0
KPG1 261643Z 01002KT 29/17 A3011 RMK A01 T02880168  RH  048%=      5-min Rain = 0
KPG1 261644Z 26003KT 29/17 A301 RMK A01 T02880171  RH  049%=      5-min Rain = 0
KPG1 261645Z 29003KT 29/17 A3011 RMK A01 T02890170  RH  048%=      5-min Rain = 0
KPG1 261646Z 28001KT 29/17 A301 RMK A01 T02880168  RH  048%=      5-min Rain = 0
KPG1 261647Z 27004KT 29/17 A301 RMK A01 T02870169  RH  049%=      5-min Rain = 0
KPG1 261648Z 27005KT 29/17 A301 RMK A01 T02860167  RH  049%=      5-min Rain = 0
KPG1 261649Z 27004KT 28/17 A301 RMK A01 T02820167  RH  050%=      5-min Rain = 0
KPG1 261650Z 30004KT 28/17 A301 RMK A01 T02810168  RH  050%=      5-min Rain = 0
KPG1 261651Z 30004KT 28/17 A301 RMK A01 T02810166  RH  050%=      5-min Rain = 0
KPG1 261652Z 31002KT 28/17 A301 RMK A01 T02800165  RH  050%=      5-min Rain = 0
KPG1 261653Z 25001KT 28/17 A301 RMK A01 T02790167  RH  050%=      5-min Rain = 0
KPG1 261654Z 19001KT 28/17 A301 RMK A01 T02820168  RH  050%=      5-min Rain = 0
KPG1 261655Z 16004KT 29/17 A301 RMK A01 T02850170  RH  050%=      5-min Rain = 0
KPG1 261656Z 18006KT 29/17 A301 RMK A01 T02900169  RH  048%=      5-min Rain = 0
KPG1 261657Z 18006KT 29/17 A301 RMK A01 T02920167  RH  047%=      5-min Rain = 0
KPG1 261658Z 17003KT 29/17 A301 RMK A01 T02940166  RH  046%=      5-min Rain = 0
KPG1 261659Z 14001KT 29/16 A301 RMK A01 T02940162  RH  045%=      5-min Rain = 0
KPG1 261700Z 13001KT 29/16 A301 RMK A01 T02920161  RH  045%=      5-min Rain = 0
KPG1 261701Z 30000KT 29/16 A301 RMK A01 T02920162  RH  046%=      5-min Rain = 0
KPG1 261702Z 27001KT 29/16 A301 RMK A01 T02920163  RH  046%=      5-min Rain = 0
KPG1 261703Z 26002KT 29/16 A301 RMK A01 T02930162  RH  045%=      5-min Rain = 0
KPG1 261704Z 27003KT 29/16 A301 RMK A01 T02930163  RH  045%=      5-min Rain = 0
KPG1 261705Z 32003KT 29/16 A301 RMK A01 T02920161  RH  045%=      5-min Rain = 0
KPG1 261706Z 33002KT 29/16 A301 RMK A01 T02900161  RH  046%=      5-min Rain = 0
KPG1 261707Z 33003KT 29/16 A301 RMK A01 T02890161  RH  046%=      5-min Rain = 0
KPG1 261708Z 30002KT 29/16 A301 RMK A01 T02890162  RH  046%=      5-min Rain = 0
KPG1 261709Z 00002KT 29/17 A301 RMK A01 T02900165  RH  047%=      5-min Rain = 0
KPG1 261710Z 16003KT 29/17 A301 RMK A01 T02940167  RH  046%=      5-min Rain = 0
KPG1 261711Z 14005KT 30/17 A301 RMK A01 T02970168  RH  046%=      5-min Rain = 0
KPG1 261712Z 15004KT 30/17 A301 RMK A01 T02990166  RH  045%=      5-min Rain = 0
KPG1 261713Z 18003KT 30/17 A301 RMK A01 T02980168  RH  046%=      5-min Rain = 0
KPG1 261714Z 21001KT 30/17 A301 RMK A01 T02960169  RH  046%=      5-min Rain = 0
KPG1 261715Z 28002KT 30/17 A301 RMK A01 T02960167  RH  046%=      5-min Rain = 0
KPG1 261716Z 27001KT 29/17 A301 RMK A01 T02940169  RH  047%=      5-min Rain = 0
KPG1 261717Z 18002KT 30/17 A301 RMK A01 T02950171  RH  047%=      5-min Rain = 0
KPG1 261718Z 14008KT 30/17 A301 RMK A01 T02980170  RH  046%=      5-min Rain = 0
KPG1 261719Z 14006KT 30/17 A301 RMK A01 T02990170  RH  046%=      5-min Rain = 0
KPG1 261720Z 18003KT 30/17 A301 RMK A01 T02990168  RH  045%=      5-min Rain = 0
KPG1 261721Z 15005KT 30/17 A301 RMK A01 T02990173  RH  047%=      5-min Rain = 0
KPG1 261722Z 09005KT 30/17 A301 RMK A01 T03000174  RH  047%=      5-min Rain = 0
KPG1 261723Z 08005KT 30/17 A301 RMK A01 T02980174  RH  047%=      5-min Rain = 0
KPG1 261724Z 05005KT 30/18 A301 RMK A01 T02990178  RH  048%=      5-min Rain = 0
KPG1 261725Z 05007KT 30/18 A301 RMK A01 T03020178  RH  047%=      5-min Rain = 0
KPG1 261726Z 13008KT 30/18 A301 RMK A01 T03020179  RH  048%=      5-min Rain = 0
KPG1 261727Z 12005KT 30/18 A301 RMK A01 T03020177  RH  047%=      5-min Rain = 0
KPG1 261728Z 08008KT 30/18 A301 RMK A01 T03020179  RH  048%=      5-min Rain = 0
KPG1 261729Z 07009KT 30/18 A301 RMK A01 T03010176  RH  047%=      5-min Rain = 0
KPG1 261730Z 08009KT 30/18 A301 RMK A01 T03000177  RH  048%=      5-min Rain = 0
KPG1 261731Z 07007KT 30/18 A301 RMK A01 T03000177  RH  048%=      5-min Rain = 0
KPG1 261732Z 07005KT 30/17 A301 RMK A01 T02980174  RH  047%=      5-min Rain = 0
KPG1 261733Z 03003KT 29/17 A301 RMK A01 T02940174  RH  049%=      5-min Rain = 0
KPG1 261734Z 04004KT 29/17 A301 RMK A01 T02930172  RH  048%=      5-min Rain = 0
KPG1 261735Z 08009KT 29/18 A301 RMK A01 T02940176  RH  049%=      5-min Rain = 0
KPG1 261736Z 06009KT 30/18 A301 RMK A01 T02960178  RH  049%=      5-min Rain = 0
KPG1 261737Z 06010KT 30/18 A301 RMK A01 T02980176  RH  048%=      5-min Rain = 0
KPG1 261738Z 07008KT 30/18 A301 RMK A01 T02950177  RH  049%=      5-min Rain = 0
KPG1 261739Z 05007KT 30/18 A301 RMK A01 T02950176  RH  049%=      5-min Rain = 0
KPG1 261740Z 02007KT 30/18 A301 RMK A01 T02950176  RH  049%=      5-min Rain = 0
KPG1 261741Z 05008KT 30/18 A301 RMK A01 T02950176  RH  049%=      5-min Rain = 0
KPG1 261742Z 08008KT 30/18 A301 RMK A01 T02950175  RH  049%=      5-min Rain = 0
KPG1 261743Z 09006KT 29/17 A301 RMK A01 T02930174  RH  049%=      5-min Rain = 0
KPG1 261744Z 07007KT 29/18 A301 RMK A01 T02930178  RH  050%=      5-min Rain = 0
KPG1 261745Z 07005KT 30/18 A301 RMK A01 T02980176  RH  048%=      5-min Rain = 0
KPG1 261746Z 07005KT 30/18 A301 RMK A01 T02970176  RH  048%=      5-min Rain = 0
KPG1 261747Z 06006KT 30/18 A301 RMK A01 T02960176  RH  048%=      5-min Rain = 0
KPG1 261748Z 06011KT 30/18 A301 RMK A01 T02960175  RH  048%=      5-min Rain = 0
KPG1 261749Z 06009KT 29/17 A301 RMK A01 T02940174  RH  048%=      5-min Rain = 0
KPG1 261750Z 06007KT 29/18 A301 RMK A01 T02930175  RH  049%=      5-min Rain = 0
KPG1 261751Z 03006KT 30/18 A301 RMK A01 T02970180  RH  049%=      5-min Rain = 0
KPG1 261752Z 05007KT 30/18 A301 RMK A01 T03020178  RH  047%=      5-min Rain = 0
KPG1 261753Z 03006KT 30/17 A301 RMK A01 T03010174  RH  047%=      5-min Rain = 0
KPG1 261754Z 06007KT 30/18 A301 RMK A01 T02990176  RH  048%=      5-min Rain = 0
KPG1 261755Z 06008KT 30/17 A301 RMK A01 T03000174  RH  047%=      5-min Rain = 0
KPG1 261756Z 06008KT 30/17 A301 RMK A01 T02990173  RH  047%=      5-min Rain = 0
KPG1 261757Z 06006KT 30/17 A301 RMK A01 T02980173  RH  047%=      5-min Rain = 0
KPG1 261758Z 08007KT 30/17 A3009 RMK A01 T02980173  RH  047%=      5-min Rain = 0
KPG1 261759Z 08005KT 30/17 A3009 RMK A01 T03010172  RH  046%=      5-min Rain = 0
KPG1 261800Z 05007KT 30/17 A3009 RMK A01 T02990172  RH  046%=      5-min Rain = 0
KPG1 261801Z 04005KT 30/17 A3009 RMK A01 T02980170  RH  046%=      5-min Rain = 0
KPG1 261802Z 04004KT 30/17 A3009 RMK A01 T02980172  RH  047%=      5-min Rain = 0
KPG1 261803Z 05005KT 30/17 A3009 RMK A01 T03020174  RH  046%=      5-min Rain = 0
KPG1 261804Z 07005KT 31/18 A3009 RMK A01 T03050175  RH  046%=      5-min Rain = 0
KPG1 261805Z 08005KT 31/17 A3009 RMK A01 T03050174  RH  045%=      5-min Rain = 0
KPG1 261806Z 07006KT 30/17 A3009 RMK A01 T03020172  RH  046%=      5-min Rain = 0
KPG1 261807Z 06007KT 30/17 A3009 RMK A01 T03010172  RH  046%=      5-min Rain = 0
KPG1 261808Z 09007KT 30/17 A3009 RMK A01 T02990171  RH  046%=      5-min Rain = 0
KPG1 261809Z 12005KT 30/18 A3009 RMK A01 T02990175  RH  047%=      5-min Rain = 0
KPG1 261810Z 10008KT 30/18 A3009 RMK A01 T03030175  RH  046%=      5-min Rain = 0
KPG1 261811Z 09008KT 31/17 A3009 RMK A01 T03060173  RH  045%=      5-min Rain = 0
KPG1 261812Z 10003KT 31/17 A3009 RMK A01 T03070170  RH  044%=      5-min Rain = 0
KPG1 261813Z 14008KT 31/17 A3009 RMK A01 T03070171  RH  044%=      5-min Rain = 0
KPG1 261814Z 15007KT 31/17 A3009 RMK A01 T03090168  RH  043%=      5-min Rain = 0
KPG1 261815Z 14006KT 31/17 A3009 RMK A01 T03120168  RH  042%=      5-min Rain = 0
KPG1 261816Z 12004KT 31/17 A3009 RMK A01 T03110166  RH  042%=      5-min Rain = 0
KPG1 261817Z 14004KT 31/16 A3009 RMK A01 T03100163  RH  041%=      5-min Rain = 0
KPG1 261818Z 17003KT 31/16 A3009 RMK A01 T03070161  RH  041%=      5-min Rain = 0
KPG1 261819Z 19004KT 31/16 A3009 RMK A01 T03050162  RH  042%=      5-min Rain = 0
KPG1 261820Z 21004KT 30/17 A3009 RMK A01 T03040165  RH  043%=      5-min Rain = 0
KPG1 261821Z 23002KT 30/16 A3009 RMK A01 T03020163  RH  043%=      5-min Rain = 0
KPG1 261822Z 25002KT 30/16 A3009 RMK A01 T03000163  RH  044%=      5-min Rain = 0
KPG1 261823Z 14002KT 30/17 A3009 RMK A01 T03000167  RH  045%=      5-min Rain = 0
KPG1 261824Z 14003KT 30/17 A3009 RMK A01 T03030170  RH  045%=      5-min Rain = 0
KPG1 261825Z 12006KT 31/17 A3009 RMK A01 T03060172  RH  045%=      5-min Rain = 0
KPG1 261826Z 10005KT 31/17 A3009 RMK A01 T03090172  RH  044%=      5-min Rain = 0
KPG1 261827Z 13008KT 31/17 A3009 RMK A01 T03090169  RH  043%=      5-min Rain = 0
KPG1 261828Z 13005KT 31/17 A3008 RMK A01 T03060165  RH  043%=      5-min Rain = 0
KPG1 261829Z 09009KT 31/17 A3008 RMK A01 T03050172  RH  045%=      5-min Rain = 0
KPG1 261830Z 06010KT 31/17 A3008 RMK A01 T03060173  RH  045%=      5-min Rain = 0
KPG1 261831Z 07007KT 31/17 A3009 RMK A01 T03050173  RH  045%=      5-min Rain = 0
KPG1 261832Z 06007KT 30/17 A3008 RMK A01 T03040174  RH  046%=      5-min Rain = 0
KPG1 261833Z 09008KT 31/17 A3008 RMK A01 T03060172  RH  045%=      5-min Rain = 0
KPG1 261834Z 07009KT 31/17 A3008 RMK A01 T03060169  RH  044%=      5-min Rain = 0
KPG1 261835Z 06007G13KT 30/17 A3008 RMK A01 T03040168  RH  044%=      5-min Rain = 0
KPG1 261836Z 06011KT 30/17 A3008 RMK A01 T03040169  RH  044%=      5-min Rain = 0
KPG1 261837Z 07009KT 30/17 A3008 RMK A01 T03040171  RH  045%=      5-min Rain = 0
KPG1 261838Z 08008KT 31/17 A3008 RMK A01 T03050169  RH  044%=      5-min Rain = 0
KPG1 261839Z 06011KT 31/17 A3008 RMK A01 T03050168  RH  044%=      5-min Rain = 0
KPG1 261840Z 06011KT 31/17 A3008 RMK A01 T03050166  RH  043%=      5-min Rain = 0
KPG1 261841Z 05009KT 30/17 A3008 RMK A01 T03040165  RH  043%=      5-min Rain = 0
KPG1 261842Z 05008KT 30/17 A3008 RMK A01 T03030165  RH  043%=      5-min Rain = 0
KPG1 261843Z 04008KT 31/17 A3008 RMK A01 T03060168  RH  044%=      5-min Rain = 0
KPG1 261844Z 06009KT 31/17 A3008 RMK A01 T03100168  RH  042%=      5-min Rain = 0
KPG1 261845Z 06008KT 31/17 A3008 RMK A01 T03090166  RH  042%=      5-min Rain = 0
KPG1 261846Z 07004KT 31/17 A3008 RMK A01 T03070166  RH  043%=      5-min Rain = 0
KPG1 261847Z 11002KT 31/17 A3008 RMK A01 T03050166  RH  043%=      5-min Rain = 0
KPG1 261848Z 09002KT 31/17 A3008 RMK A01 T03060170  RH  044%=      5-min Rain = 0
KPG1 261849Z 07005KT 31/17 A3008 RMK A01 T03100171  RH  043%=      5-min Rain = 0
KPG1 261850Z 06008KT 31/17 A3008 RMK A01 T03110168  RH  042%=      5-min Rain = 0
KPG1 261851Z 05011KT 31/17 A3008 RMK A01 T03110168  RH  042%=      5-min Rain = 0
KPG1 261852Z 08010G15KT 31/17 A3008 RMK A01 T03100167  RH  042%=      5-min Rain = 0
KPG1 261853Z 08006KT 31/17 A3008 RMK A01 T03080169  RH  043%=      5-min Rain = 0
KPG1 261854Z 06011KT 31/17 A3008 RMK A01 T03110169  RH  043%=      5-min Rain = 0
KPG1 261855Z 06009KT 31/16 A3008 RMK A01 T03110164  RH  041%=      5-min Rain = 0
KPG1 261856Z 07007KT 31/16 A3008 RMK A01 T03060161  RH  042%=      5-min Rain = 0
KPG1 261857Z 06003KT 30/16 A3008 RMK A01 T03040161  RH  042%=      5-min Rain = 0
KPG1 261858Z 05003KT 31/16 A3008 RMK A01 T03060163  RH  042%=      5-min Rain = 0
KPG1 261859Z 07005KT 31/17 A3008 RMK A01 T03100165  RH  042%=      5-min Rain = 0
KPG1 261900Z 09007KT 31/17 A3008 RMK A01 T03110166  RH  042%=      5-min Rain = 0
KPG1 261901Z 08011KT 31/17 A3008 RMK A01 T03110165  RH  041%=      5-min Rain = 0
KPG1 261902Z 09010KT 31/16 A3008 RMK A01 T03110164  RH  041%=      5-min Rain = 0
KPG1 261903Z 09007KT 31/16 A3008 RMK A01 T03080161  RH  041%=      5-min Rain = 0
KPG1 261904Z 13005KT 31/16 A3008 RMK A01 T03070163  RH  042%=      5-min Rain = 0
KPG1 261905Z 11005KT 31/17 A3007 RMK A01 T03080165  RH  042%=      5-min Rain = 0
KPG1 261906Z 12010KT 31/17 A3008 RMK A01 T03130168  RH  042%=      5-min Rain = 0
KPG1 261907Z 07007KT 32/17 A3008 RMK A01 T03170168  RH  041%=      5-min Rain = 0
KPG1 261908Z 07007KT 32/17 A3008 RMK A01 T03190167  RH  040%=      5-min Rain = 0
KPG1 261909Z 11006KT 32/17 A3008 RMK A01 T03210166  RH  040%=      5-min Rain = 0
KPG1 261910Z 08006KT 32/17 A3008 RMK A01 T03180168  RH  041%=      5-min Rain = 0
KPG1 261911Z 07004KT 32/17 A3008 RMK A01 T03160165  RH  040%=      5-min Rain = 0
KPG1 261912Z 07001KT 31/16 A3007 RMK A01 T03130163  RH  041%=      5-min Rain = 0
KPG1 261913Z 02000KT 31/16 A3007 RMK A01 T03130162  RH  040%=      5-min Rain = 0
KPG1 261914Z 05005KT 31/16 A3008 RMK A01 T03120164  RH  041%=      5-min Rain = 0
KPG1 261915Z 06011KT 32/17 A3008 RMK A01 T03150167  RH  041%=      5-min Rain = 0
KPG1 261916Z 05011KT 32/17 A3008 RMK A01 T03180168  RH  041%=      5-min Rain = 0
KPG1 261917Z 06010KT 32/17 A3008 RMK A01 T03170167  RH  041%=      5-min Rain = 0
KPG1 261918Z 05004KT 32/17 A3008 RMK A01 T03160166  RH  041%=      5-min Rain = 0
KPG1 261919Z 05005KT 32/17 A3007 RMK A01 T03160168  RH  041%=      5-min Rain = 0
KPG1 261920Z 13009KT 32/17 A3008 RMK A01 T03200171  RH  041%=      5-min Rain = 0
KPG1 261921Z 10006KT 32/17 A3008 RMK A01 T03240169  RH  040%=      5-min Rain = 0
KPG1 261922Z 05009KT 33/17 A3008 RMK A01 T03250167  RH  039%=      5-min Rain = 0
KPG1 261923Z 05007KT 32/16 A3008 RMK A01 T03180162  RH  039%=      5-min Rain = 0
KPG1 261924Z 05008KT 31/16 A3008 RMK A01 T03120163  RH  041%=      5-min Rain = 0
KPG1 261925Z 04006KT 31/16 A3008 RMK A01 T03100163  RH  041%=      5-min Rain = 0
KPG1 261926Z 03007KT 31/16 A3008 RMK A01 T03100163  RH  041%=      5-min Rain = 0
KPG1 261927Z 07010G15KT 31/16 A3008 RMK A01 T03110163  RH  041%=      5-min Rain = 0
KPG1 261928Z 10009KT 31/16 A3007 RMK A01 T03110162  RH  041%=      5-min Rain = 0
KPG1 261929Z 09006KT 31/16 A3007 RMK A01 T03100163  RH  041%=      5-min Rain = 0
KPG1 261930Z 13008G14KT 31/17 A3007 RMK A01 T03110166  RH  042%=      5-min Rain = 0
KPG1 261931Z 12011KT 31/16 A3007 RMK A01 T03140164  RH  041%=      5-min Rain = 0
KPG1 261932Z 12008G14KT 32/17 A3007 RMK A01 T03160165  RH  040%=      5-min Rain = 0
KPG1 261933Z 08011KT 32/16 A3007 RMK A01 T03180164  RH  040%=      5-min Rain = 0
KPG1 261934Z 07010KT 32/16 A3007 RMK A01 T03170163  RH  040%=      5-min Rain = 0
KPG1 261935Z 07011KT 32/16 A3007 RMK A01 T03160162  RH  040%=      5-min Rain = 0
KPG1 261936Z 08007KT 31/16 A3007 RMK A01 T03140164  RH  041%=      5-min Rain = 0
KPG1 261937Z 09004KT 32/16 A3007 RMK A01 T03160164  RH  040%=      5-min Rain = 0
KPG1 261938Z 09007KT 32/17 A3007 RMK A01 T03160165  RH  040%=      5-min Rain = 0
KPG1 261939Z 08009KT 32/17 A3007 RMK A01 T03160165  RH  040%=      5-min Rain = 0
KPG1 261940Z 06010KT 32/17 A3007 RMK A01 T03160166  RH  041%=      5-min Rain = 0
KPG1 261941Z 03014KT 32/17 A3007 RMK A01 T03190168  RH  040%=      5-min Rain = 0
KPG1 261942Z 03011KT 32/17 A3007 RMK A01 T03210167  RH  040%=      5-min Rain = 0
KPG1 261943Z 02008KT 32/17 A3007 RMK A01 T03220165  RH  039%=      5-min Rain = 0
KPG1 261944Z 02005KT 32/17 A3007 RMK A01 T03190165  RH  040%=      5-min Rain = 0
KPG1 261945Z 04008KT 32/16 A3007 RMK A01 T03190164  RH  039%=      5-min Rain = 0
KPG1 261946Z 05010KT 32/16 A3007 RMK A01 T03190164  RH  039%=      5-min Rain = 0
KPG1 261947Z 05013KT 32/16 A3007 RMK A01 T03210160  RH  038%=      5-min Rain = 0
KPG1 261948Z 06013KT 32/16 A3007 RMK A01 T03210156  RH  037%=      5-min Rain = 0
KPG1 261949Z 05011KT 32/15 A3007 RMK A01 T03190154  RH  037%=      5-min Rain = 0
KPG1 261950Z 03009KT 32/15 A3007 RMK A01 T03180154  RH  037%=      5-min Rain = 0
KPG1 261951Z 02009KT 32/16 A3006 RMK A01 T03180156  RH  038%=      5-min Rain = 0
KPG1 261952Z 04012KT 32/15 A3007 RMK A01 T03210154  RH  036%=      5-min Rain = 0
KPG1 261953Z 04011KT 32/15 A3007 RMK A01 T03220153  RH  036%=      5-min Rain = 0
KPG1 261954Z 04009KT 32/15 A3007 RMK A01 T03230153  RH  036%=      5-min Rain = 0
KPG1 261955Z 05007KT 32/15 A3006 RMK A01 T03230154  RH  036%=      5-min Rain = 0
KPG1 261956Z 07011KT 33/15 A3006 RMK A01 T03260153  RH  035%=      5-min Rain = 0
KPG1 261957Z 08010KT 33/15 A3006 RMK A01 T03260148  RH  034%=      5-min Rain = 0
KPG1 261958Z 07006KT 32/14 A3007 RMK A01 T03220144  RH  034%=      5-min Rain = 0
KPG1 261959Z 09006KT 32/15 A3006 RMK A01 T03190145  RH  035%=      5-min Rain = 0
KPG1 262000Z 08010KT 32/15 A3006 RMK A01 T03200147  RH  035%=      5-min Rain = 0
KPG1 262001Z 06009KT 32/15 A3006 RMK A01 T03240147  RH  034%=      5-min Rain = 0
KPG1 262002Z 08013KT 33/15 A3006 RMK A01 T03280146  RH  033%=      5-min Rain = 0
KPG1 262003Z 09010KT 33/14 A3006 RMK A01 T03260142  RH  033%=      5-min Rain = 0
KPG1 262004Z 07010KT 32/14 A3007 RMK A01 T03240144  RH  034%=      5-min Rain = 0
KPG1 262005Z 08009KT 33/14 A3006 RMK A01 T03260142  RH  033%=      5-min Rain = 0
KPG1 262006Z 06008KT 33/14 A3007 RMK A01 T03250142  RH  033%=      5-min Rain = 0
KPG1 262007Z 07008KT 33/14 A3006 RMK A01 T03260139  RH  032%=      5-min Rain = 0
KPG1 262008Z 07006KT 32/14 A3006 RMK A01 T03240135  RH  032%=      5-min Rain = 0
KPG1 262009Z 04005KT 32/14 A3006 RMK A01 T03210136  RH  032%=      5-min Rain = 0
KPG1 262010Z 04009KT 33/14 A3006 RMK A01 T03250139  RH  033%=      5-min Rain = 0
KPG1 262011Z 05006KT 33/13 A3006 RMK A01 T03260134  RH  031%=      5-min Rain = 0
KPG1 262012Z 05003KT 33/14 A3006 RMK A01 T03250137  RH  032%=      5-min Rain = 0
KPG1 262013Z 03008KT 33/14 A3006 RMK A01 T03280138  RH  032%=      5-min Rain = 0
KPG1 262014Z 05010KT 33/13 A3006 RMK A01 T03300129  RH  029%=      5-min Rain = 0
KPG1 262015Z 06007KT 33/13 A3006 RMK A01 T03280127  RH  030%=      5-min Rain = 0
KPG1 262016Z 08008KT 33/13 A3006 RMK A01 T03250127  RH  030%=      5-min Rain = 0
KPG1 262017Z 05010KT 32/13 A3006 RMK A01 T03240129  RH  031%=      5-min Rain = 0
KPG1 262018Z 06010KT 32/13 A3006 RMK A01 T03220127  RH  030%=      5-min Rain = 0
KPG1 262019Z 07011KT 32/13 A3006 RMK A01 T03230126  RH  030%=      5-min Rain = 0
KPG1 262020Z 06009KT 32/13 A3006 RMK A01 T03240125  RH  030%=      5-min Rain = 0
KPG1 262021Z 05011G16KT 33/13 A3006 RMK A01 T03250126  RH  030%=      5-min Rain = 0
KPG1 262022Z 05015KT 33/13 A3006 RMK A01 T03270130  RH  030%=      5-min Rain = 0
KPG1 262023Z 06015KT 33/13 A3006 RMK A01 T03260131  RH  030%=      5-min Rain = 0
KPG1 262024Z 07010KT 33/13 A3006 RMK A01 T03270129  RH  030%=      5-min Rain = 0
KPG1 262025Z 06009KT 33/13 A3006 RMK A01 T03260129  RH  030%=      5-min Rain = 0
KPG1 262026Z 08005KT 33/13 A3006 RMK A01 T03260131  RH  031%=      5-min Rain = 0
KPG1 262027Z 10002KT 33/14 A3006 RMK A01 T03290135  RH  031%=      5-min Rain = 0
KPG1 262028Z 08002KT 33/13 A3006 RMK A01 T03320131  RH  029%=      5-min Rain = 0
KPG1 262029Z 08004KT 33/13 A3005 RMK A01 T03300127  RH  029%=      5-min Rain = 0
KPG1 262030Z 06004KT 33/13 A3005 RMK A01 T03280130  RH  030%=      5-min Rain = 0
KPG1 262031Z 03008G13KT 33/13 A3005 RMK A01 T03300134  RH  031%=      5-min Rain = 0
KPG1 262032Z 04011KT 33/13 A3005 RMK A01 T03340131  RH  029%=      5-min Rain = 0
KPG1 262033Z 05012G17KT 33/13 A3005 RMK A01 T03340132  RH  029%=      5-min Rain = 0
KPG1 262034Z 07013KT 34/14 A3005 RMK A01 T03360136  RH  030%=      5-min Rain = 0
KPG1 262035Z 06012KT 33/13 A3005 RMK A01 T03340134  RH  030%=      5-min Rain = 0
KPG1 262036Z 08010KT 33/14 A3005 RMK A01 T03310135  RH  031%=      5-min Rain = 0
KPG1 262037Z 08011KT 33/14 A3005 RMK A01 T03300136  RH  031%=      5-min Rain = 0
KPG1 262038Z 07011G16KT 33/13 A3005 RMK A01 T03300133  RH  030%=      5-min Rain = 0
KPG1 262039Z 05005G10KT 33/13 A3005 RMK A01 T03280130  RH  030%=      5-min Rain = 0
KPG1 262040Z 07009KT 33/13 A3005 RMK A01 T03260133  RH  031%=      5-min Rain = 0
KPG1 262041Z 06008KT 33/14 A3005 RMK A01 T03280135  RH  031%=      5-min Rain = 0
KPG1 262042Z 05007KT 33/14 A3005 RMK A01 T03280135  RH  031%=      5-min Rain = 0
KPG1 262043Z 08007KT 33/14 A3005 RMK A01 T03290137  RH  031%=      5-min Rain = 0
KPG1 262044Z 07005G10KT 33/14 A3005 RMK A01 T03320140  RH  032%=      5-min Rain = 0
KPG1 262045Z 07007KT 33/14 A3005 RMK A01 T03340144  RH  032%=      5-min Rain = 0
KPG1 262046Z 07009KT 34/14 A3005 RMK A01 T03360143  RH  031%=      5-min Rain = 0
KPG1 262047Z 05008KT 33/14 A3005 RMK A01 T03340143  RH  032%=      5-min Rain = 0
KPG1 262048Z 03009KT 33/15 A3005 RMK A01 T03320145  RH  032%=      5-min Rain = 0
KPG1 262049Z 05012G18KT 33/15 A3005 RMK A01 T03310146  RH  033%=      5-min Rain = 0
KPG1 262050Z 05013KT 33/14 A3005 RMK A01 T03310144  RH  032%=      5-min Rain = 0
KPG1 262051Z 07006G11KT 33/14 A3005 RMK A01 T03280143  RH  033%=      5-min Rain = 0
KPG1 262052Z 10003KT 33/15 A3005 RMK A01 T03280146  RH  033%=      5-min Rain = 0
KPG1 262053Z 11006KT 33/15 A3005 RMK A01 T03310146  RH  033%=      5-min Rain = 0
KPG1 262054Z 09003KT 33/14 A3005 RMK A01 T03320142  RH  032%=      5-min Rain = 0
KPG1 262055Z 06002KT 33/15 A3005 RMK A01 T03320145  RH  033%=      5-min Rain = 0
KPG1 262056Z 09006G12KT 34/15 A3005 RMK A01 T03360151  RH  033%=      5-min Rain = 0
KPG1 262057Z 07008KT 34/15 A3005 RMK A01 T03380151  RH  033%=      5-min Rain = 0
KPG1 262058Z 05008KT 34/15 A3005 RMK A01 T03350149  RH  033%=      5-min Rain = 0
KPG1 262059Z 06013KT 33/15 A3005 RMK A01 T03310150  RH  034%=      5-min Rain = 0
KPG1 262100Z 07010KT 33/15 A3005 RMK A01 T03300153  RH  035%=      5-min Rain = 0
KPG1 262101Z 06010KT 34/16 A3005 RMK A01 T03350155  RH  034%=      5-min Rain = 0
KPG1 262102Z 06010KT 34/15 A3005 RMK A01 T03390153  RH  033%=      5-min Rain = 0
KPG1 262103Z 06010KT 34/15 A3005 RMK A01 T03380152  RH  033%=      5-min Rain = 0
KPG1 262104Z 10010KT 33/15 A3004 RMK A01 T03340154  RH  034%=      5-min Rain = 0
KPG1 262105Z 10006KT 34/16 A3004 RMK A01 T03350155  RH  034%=      5-min Rain = 0
KPG1 262106Z 07008G13KT 34/15 A3005 RMK A01 T03350154  RH  034%=      5-min Rain = 0
KPG1 262107Z 06006G12KT 33/15 A3005 RMK A01 T03340154  RH  034%=      5-min Rain = 0
KPG1 262108Z 05006KT 34/15 A3005 RMK A01 T03360153  RH  033%=      5-min Rain = 0
KPG1 262109Z 05007G12KT 34/15 A3004 RMK A01 T03380154  RH  033%=      5-min Rain = 0
KPG1 262110Z 07005KT 34/15 A3004 RMK A01 T03400154  RH  033%=      5-min Rain = 0
KPG1 262111Z 06007KT 34/16 A3004 RMK A01 T03400159  RH  034%=      5-min Rain = 0
KPG1 262112Z 04009G15KT 34/16 A3004 RMK A01 T03400155  RH  033%=      5-min Rain = 0
KPG1 262113Z 04007KT 34/16 A3004 RMK A01 T03360159  RH  035%=      5-min Rain = 0
KPG1 262114Z 01009KT 33/16 A3004 RMK A01 T03340160  RH  035%=      5-min Rain = 0
KPG1 262115Z 02012KT 34/16 A3004 RMK A01 T03350162  RH  035%=      5-min Rain = 0
KPG1 262116Z 03010KT 34/16 A3004 RMK A01 T03360161  RH  035%=      5-min Rain = 0
KPG1 262117Z 03008KT 33/16 A3004 RMK A01 T03340159  RH  035%=      5-min Rain = 0
KPG1 262118Z 04011G16KT 33/16 A3004 RMK A01 T03320160  RH  036%=      5-min Rain = 0
KPG1 262119Z 06013KT 33/16 A3004 RMK A01 T03320162  RH  036%=      5-min Rain = 0
KPG1 262120Z 08011KT 33/16 A3004 RMK A01 T03310162  RH  036%=      5-min Rain = 0
KPG1 262121Z 06008KT 33/17 A3004 RMK A01 T03330167  RH  037%=      5-min Rain = 0
KPG1 262122Z 04010KT 34/17 A3004 RMK A01 T03400167  RH  036%=      5-min Rain = 0
KPG1 262123Z 03009KT 34/16 A3004 RMK A01 T03410164  RH  035%=      5-min Rain = 0
KPG1 262124Z 04007KT 34/16 A3004 RMK A01 T03360161  RH  035%=      5-min Rain = 0
KPG1 262125Z 07010KT 33/16 A3003 RMK A01 T03340163  RH  036%=      5-min Rain = 0
KPG1 262126Z 05013KT 34/16 A3003 RMK A01 T03350162  RH  036%=      5-min Rain = 0
KPG1 262127Z 05008KT 33/16 A3004 RMK A01 T03330158  RH  035%=      5-min Rain = 0
KPG1 262128Z 07009KT 33/16 A3003 RMK A01 T03290159  RH  036%=      5-min Rain = 0
KPG1 262129Z 04009KT 33/16 A3003 RMK A01 T03300163  RH  037%=      5-min Rain = 0
KPG1 262130Z 07012KT 34/16 A3003 RMK A01 T03360162  RH  035%=      5-min Rain = 0
KPG1 262131Z 06010KT 34/16 A3003 RMK A01 T03370162  RH  035%=      5-min Rain = 0
KPG1 262132Z 07011KT 34/16 A3003 RMK A01 T03370163  RH  035%=      5-min Rain = 0
KPG1 262133Z 06011KT 34/16 A3003 RMK A01 T03370164  RH  035%=      5-min Rain = 0
KPG1 262134Z 08013KT 34/16 A3003 RMK A01 T03380163  RH  035%=      5-min Rain = 0
KPG1 262135Z 07014KT 34/17 A3003 RMK A01 T03350165  RH  036%=      5-min Rain = 0
KPG1 262136Z 07012KT 33/16 A3003 RMK A01 T03330162  RH  036%=      5-min Rain = 0
KPG1 262137Z 07012KT 33/16 A3003 RMK A01 T03330162  RH  036%=      5-min Rain = 0
KPG1 262138Z 06012KT 33/16 A3003 RMK A01 T03320159  RH  036%=      5-min Rain = 0
KPG1 262139Z 07008G13KT 33/16 A3003 RMK A01 T03290158  RH  036%=      5-min Rain = 0
KPG1 262140Z 05007KT 33/16 A3003 RMK A01 T03300158  RH  036%=      5-min Rain = 0
KPG1 262141Z 07008KT 33/16 A3003 RMK A01 T03320157  RH  035%=      5-min Rain = 0
KPG1 262142Z 07007KT 33/16 A3003 RMK A01 T03320161  RH  036%=      5-min Rain = 0
KPG1 262143Z 05009KT 33/16 A3003 RMK A01 T03310162  RH  036%=      5-min Rain = 0
KPG1 262144Z 06005KT 33/16 A3003 RMK A01 T03290161  RH  037%=      5-min Rain = 0
KPG1 262145Z 05010KT 33/16 A3003 RMK A01 T03290163  RH  037%=      5-min Rain = 0
KPG1 262146Z 04013KT 33/16 A3003 RMK A01 T03330160  RH  036%=      5-min Rain = 0
KPG1 262147Z 02011KT 33/16 A3002 RMK A01 T03330159  RH  035%=      5-min Rain = 0
KPG1 262148Z 04012KT 33/16 A3002 RMK A01 T03330162  RH  036%=      5-min Rain = 0
KPG1 262149Z 06012KT 34/15 A3003 RMK A01 T03350154  RH  034%=      5-min Rain = 0
KPG1 262150Z 08008KT 33/15 A3003 RMK A01 T03310153  RH  034%=      5-min Rain = 0
KPG1 262151Z 06008KT 33/16 A3003 RMK A01 T03290155  RH  035%=      5-min Rain = 0
KPG1 262152Z 05011KT 33/16 A3003 RMK A01 T03300163  RH  037%=      5-min Rain = 0
KPG1 262153Z 03009KT 33/16 A3002 RMK A01 T03310163  RH  037%=      5-min Rain = 0
KPG1 262154Z 03009G15KT 33/16 A3002 RMK A01 T03320164  RH  037%=      5-min Rain = 0
KPG1 262155Z 04013KT 34/16 A3002 RMK A01 T03360164  RH  036%=      5-min Rain = 0
KPG1 262156Z 03011KT 34/16 A3003 RMK A01 T03360163  RH  036%=      5-min Rain = 0
KPG1 262157Z 03011KT 34/16 A3002 RMK A01 T03350156  RH  034%=      5-min Rain = 0
KPG1 262158Z 04009KT 33/16 A3002 RMK A01 T03330159  RH  035%=      5-min Rain = 0
KPG1 262159Z 03008KT 33/16 A3002 RMK A01 T03320160  RH  036%=      5-min Rain = 0
KPG1 262200Z 05013KT 33/16 A3002 RMK A01 T03340161  RH  036%=      5-min Rain = 0
KPG1 262201Z 06012KT 34/16 A3002 RMK A01 T03360158  RH  035%=      5-min Rain = 0
KPG1 262202Z 07008G14KT 33/16 A3002 RMK A01 T03340157  RH  035%=      5-min Rain = 0
KPG1 262203Z 07007KT 33/15 A3002 RMK A01 T03330154  RH  034%=      5-min Rain = 0
KPG1 262204Z 08007KT 33/15 A3002 RMK A01 T03320154  RH  034%=      5-min Rain = 0
KPG1 262205Z 06010KT 33/15 A3002 RMK A01 T03320154  RH  034%=      5-min Rain = 0
KPG1 262206Z 06008KT 33/15 A3002 RMK A01 T03330153  RH  034%=      5-min Rain = 0
KPG1 262207Z 08006KT 33/15 A3002 RMK A01 T03330152  RH  034%=      5-min Rain = 0
KPG1 262208Z 09003KT 33/15 A3002 RMK A01 T03330152  RH  034%=      5-min Rain = 0
KPG1 262209Z 08003KT 33/15 A3002 RMK A01 T03330151  RH  033%=      5-min Rain = 0
KPG1 262210Z 08007KT 34/15 A3002 RMK A01 T03350154  RH  034%=      5-min Rain = 0
KPG1 262211Z 09007KT 34/15 A3002 RMK A01 T03370154  RH  033%=      5-min Rain = 0
KPG1 262212Z 07010KT 34/16 A3002 RMK A01 T03370156  RH  034%=      5-min Rain = 0
KPG1 262213Z 07010KT 34/15 A3002 RMK A01 T03380153  RH  033%=      5-min Rain = 0
KPG1 262214Z 05009KT 34/15 A3002 RMK A01 T03380152  RH  033%=      5-min Rain = 0
KPG1 262215Z 05012KT 34/15 A3002 RMK A01 T03390152  RH  032%=      5-min Rain = 0
KPG1 262216Z 03013KT 34/15 A3002 RMK A01 T03390150  RH  032%=      5-min Rain = 0
KPG1 262217Z 03011KT 34/15 A3002 RMK A01 T03370149  RH  032%=      5-min Rain = 0
KPG1 262218Z 05008KT 34/15 A3002 RMK A01 T03350148  RH  033%=      5-min Rain = 0
KPG1 262219Z 04007KT 34/15 A3002 RMK A01 T03350149  RH  033%=      5-min Rain = 0
KPG1 262220Z 03009KT 34/14 A3002 RMK A01 T03380143  RH  031%=      5-min Rain = 0
KPG1 262221Z 02009KT 34/14 A3002 RMK A01 T03390141  RH  030%=      5-min Rain = 0
KPG1 262222Z 03012KT 34/15 A3002 RMK A01 T03390145  RH  031%=      5-min Rain = 0
KPG1 262223Z 05010KT 34/15 A3002 RMK A01 T03370146  RH  032%=      5-min Rain = 0
KPG1 262224Z 07013KT 34/15 A3002 RMK A01 T03370146  RH  032%=      5-min Rain = 0
KPG1 262225Z 08011KT 34/14 A3002 RMK A01 T03360144  RH  031%=      5-min Rain = 0
KPG1 262226Z 10010KT 33/14 A3002 RMK A01 T03340143  RH  032%=      5-min Rain = 0
KPG1 262227Z 11007KT 33/14 A3002 RMK A01 T03320143  RH  032%=      5-min Rain = 0
KPG1 262228Z 05008KT 33/14 A3002 RMK A01 T03320142  RH  032%=      5-min Rain = 0
KPG1 262229Z 02011KT 33/14 A3002 RMK A01 T03330143  RH  032%=      5-min Rain = 0
KPG1 262230Z 02011KT 33/14 A3002 RMK A01 T03330144  RH  032%=      5-min Rain = 0
KPG1 262231Z 02015KT 33/15 A3002 RMK A01 T03340147  RH  032%=      5-min Rain = 0
KPG1 262232Z 03016KT 34/15 A3001 RMK A01 T03350149  RH  033%=      5-min Rain = 0
KPG1 262233Z 04017KT 34/15 A3002 RMK A01 T03350150  RH  033%=      5-min Rain = 0
KPG1 262234Z 04012KT 34/15 A3002 RMK A01 T03350152  RH  033%=      5-min Rain = 0
KPG1 262235Z 02013KT 34/15 A3002 RMK A01 T03350152  RH  033%=      5-min Rain = 0
KPG1 262236Z 02009KT 33/15 A3001 RMK A01 T03340151  RH  033%=      5-min Rain = 0
KPG1 262237Z 05009KT 33/16 A3001 RMK A01 T03340155  RH  034%=      5-min Rain = 0
KPG1 262238Z 06014KT 34/15 A3002 RMK A01 T03370150  RH  032%=      5-min Rain = 0
KPG1 262239Z 05014KT 34/14 A3001 RMK A01 T03370142  RH  031%=      5-min Rain = 0
KPG1 262240Z 06009KT 34/14 A3002 RMK A01 T03360143  RH  031%=      5-min Rain = 0
KPG1 262241Z 09011KT 34/15 A3002 RMK A01 T03370146  RH  032%=      5-min Rain = 0
KPG1 262242Z 10011KT 34/14 A3002 RMK A01 T03390143  RH  031%=      5-min Rain = 0
KPG1 262243Z 09006KT 34/14 A3002 RMK A01 T03360139  RH  030%=      5-min Rain = 0
KPG1 262244Z 06009KT 34/14 A3001 RMK A01 T03350144  RH  032%=      5-min Rain = 0
KPG1 262245Z 06009KT 34/14 A3002 RMK A01 T03370143  RH  031%=      5-min Rain = 0
KPG1 262246Z 03009KT 34/15 A3001 RMK A01 T03370145  RH  032%=      5-min Rain = 0
KPG1 262247Z 04010KT 34/15 A3001 RMK A01 T03350147  RH  032%=      5-min Rain = 0
KPG1 262248Z 07013KT 33/15 A3001 RMK A01 T03330147  RH  033%=      5-min Rain = 0
KPG1 262249Z 07012KT 33/15 A3001 RMK A01 T03340150  RH  033%=      5-min Rain = 0
KPG1 262250Z 08009KT 34/15 A3001 RMK A01 T03350151  RH  033%=      5-min Rain = 0
KPG1 262251Z 05012KT 33/15 A3001 RMK A01 T03340152  RH  033%=      5-min Rain = 0
KPG1 262252Z 05012KT 33/15 A3001 RMK A01 T03340150  RH  033%=      5-min Rain = 0
KPG1 262253Z 06013KT 33/15 A3002 RMK A01 T03340152  RH  033%=      5-min Rain = 0
KPG1 262254Z 06012KT 34/15 A3002 RMK A01 T03350153  RH  034%=      5-min Rain = 0
KPG1 262255Z 06010KT 33/15 A3002 RMK A01 T03340154  RH  034%=      5-min Rain = 0
KPG1 262256Z 06010KT 33/15 A3002 RMK A01 T03340154  RH  034%=      5-min Rain = 0
KPG1 262257Z 06010KT 33/15 A3001 RMK A01 T03320151  RH  034%=      5-min Rain = 0
KPG1 262258Z 07011KT 33/15 A3001 RMK A01 T03310154  RH  034%=      5-min Rain = 0
KPG1 262259Z 05009KT 33/16 A3001 RMK A01 T03340155  RH  034%=      5-min Rain = 0
KPG1 262300Z 05008KT 34/16 A3001 RMK A01 T03380158  RH  034%=      5-min Rain = 0
KPG1 262301Z 02009KT 34/16 A3001 RMK A01 T03390156  RH  034%=      5-min Rain = 0
KPG1 262302Z 02013G18KT 34/15 A3001 RMK A01 T03370154  RH  034%=      5-min Rain = 0
KPG1 262303Z 03015KT 34/15 A3001 RMK A01 T03350153  RH  034%=      5-min Rain = 0
KPG1 262304Z 06013KT 34/15 A3001 RMK A01 T03350154  RH  034%=      5-min Rain = 0
KPG1 262305Z 07012KT 34/15 A3001 RMK A01 T03350153  RH  034%=      5-min Rain = 0
KPG1 262306Z 04011KT 33/15 A3001 RMK A01 T03340154  RH  034%=      5-min Rain = 0
KPG1 262307Z 05009KT 33/15 A3001 RMK A01 T03340153  RH  034%=      5-min Rain = 0
KPG1 262308Z 06012KT 34/15 A3001 RMK A01 T03350154  RH  034%=      5-min Rain = 0
KPG1 262309Z 07015KT 34/16 A3001 RMK A01 T03360155  RH  034%=      5-min Rain = 0
KPG1 262310Z 08010KT 34/16 A3001 RMK A01 T03350156  RH  034%=      5-min Rain = 0
KPG1 262311Z 09011KT 33/16 A3001 RMK A01 T03340156  RH  034%=      5-min Rain = 0
KPG1 262312Z 06010KT 33/16 A3001 RMK A01 T03340156  RH  034%=      5-min Rain = 0
KPG1 262313Z 04009KT 33/15 A3001 RMK A01 T03330153  RH  034%=      5-min Rain = 0
KPG1 262314Z 03011KT 33/16 A3001 RMK A01 T03310155  RH  035%=      5-min Rain = 0
KPG1 262315Z 04011KT 33/15 A3001 RMK A01 T03320154  RH  034%=      5-min Rain = 0
KPG1 262316Z 03011KT 33/16 A3001 RMK A01 T03320155  RH  035%=      5-min Rain = 0
KPG1 262317Z 07012KT 33/15 A3001 RMK A01 T03330154  RH  034%=      5-min Rain = 0
KPG1 262318Z 06013KT 33/15 A3001 RMK A01 T03340154  RH  034%=      5-min Rain = 0
KPG1 262319Z 05014G19KT 33/16 A3001 RMK A01 T03340156  RH  034%=      5-min Rain = 0
KPG1 262320Z 06015KT 34/16 A3001 RMK A01 T03350155  RH  034%=      5-min Rain = 0
KPG1 262321Z 08017KT 34/15 A3001 RMK A01 T03360154  RH  034%=      5-min Rain = 0
KPG1 262322Z 08014KT 33/15 A3001 RMK A01 T03330152  RH  034%=      5-min Rain = 0
KPG1 262323Z 09009KT 33/15 A3001 RMK A01 T03310152  RH  034%=      5-min Rain = 0
KPG1 262324Z 07008G15KT 33/15 A3001 RMK A01 T03300153  RH  035%=      5-min Rain = 0
KPG1 262325Z 02010G16KT 33/15 A3001 RMK A01 T03300154  RH  035%=      5-min Rain = 0
KPG1 262326Z 02009KT 33/15 A3001 RMK A01 T03310153  RH  034%=      5-min Rain = 0
KPG1 262327Z 05009KT 33/15 A3001 RMK A01 T03310153  RH  034%=      5-min Rain = 0
KPG1 262328Z 06012KT 33/15 A3001 RMK A01 T03300153  RH  035%=      5-min Rain = 0
KPG1 262329Z 06013G18KT 33/15 A3001 RMK A01 T03300153  RH  034%=      5-min Rain = 0
KPG1 262330Z 03012G17KT 33/15 A3001 RMK A01 T03320153  RH  034%=      5-min Rain = 0
KPG1 262331Z 03011KT 33/15 A3001 RMK A01 T03320154  RH  034%=      5-min Rain = 0
KPG1 262332Z 04011G16KT 33/15 A3001 RMK A01 T03340152  RH  034%=      5-min Rain = 0
KPG1 262333Z 03010KT 33/15 A3001 RMK A01 T03340153  RH  034%=      5-min Rain = 0
KPG1 262334Z 02010KT 33/15 A3001 RMK A01 T03340152  RH  033%=      5-min Rain = 0
KPG1 262335Z 03012G18KT 33/15 A3001 RMK A01 T03340153  RH  034%=      5-min Rain = 0
KPG1 262336Z 04014KT 34/15 A3001 RMK A01 T03350153  RH  034%=      5-min Rain = 0
KPG1 262337Z 06012KT 34/15 A3001 RMK A01 T03350154  RH  034%=      5-min Rain = 0
KPG1 262338Z 06012KT 34/15 A3001 RMK A01 T03350154  RH  034%=      5-min Rain = 0
KPG1 262339Z 07011KT 33/16 A3001 RMK A01 T03330157  RH  035%=      5-min Rain = 0
KPG1 262340Z 07014KT 33/16 A3001 RMK A01 T03330156  RH  035%=      5-min Rain = 0
KPG1 262341Z 06011KT 33/16 A3001 RMK A01 T03320156  RH  035%=      5-min Rain = 0
KPG1 262342Z 06013KT 33/16 A3001 RMK A01 T03310156  RH  035%=      5-min Rain = 0
KPG1 262343Z 07015G20KT 33/16 A3001 RMK A01 T03300155  RH  035%=      5-min Rain = 0
KPG1 262344Z 04012KT 33/16 A3001 RMK A01 T03280155  RH  035%=      5-min Rain = 0
KPG1 262345Z 04011KT 33/16 A3001 RMK A01 T03290156  RH  035%=      5-min Rain = 0
KPG1 262346Z 06012KT 33/16 A3001 RMK A01 T03290156  RH  035%=      5-min Rain = 0
KPG1 262347Z 05012G17KT 33/16 A3001 RMK A01 T03290155  RH  035%=      5-min Rain = 0
KPG1 262348Z 07013KT 33/16 A3001 RMK A01 T03290157  RH  036%=      5-min Rain = 0
KPG1 262349Z 05009KT 33/16 A3001 RMK A01 T03280155  RH  035%=      5-min Rain = 0
KPG1 262350Z 01010KT 33/16 A3001 RMK A01 T03270156  RH  036%=      5-min Rain = 0
KPG1 262351Z 02012KT 33/16 A3001 RMK A01 T03280157  RH  036%=      5-min Rain = 0
KPG1 262352Z 02014KT 33/16 A3001 RMK A01 T03290156  RH  035%=      5-min Rain = 0
KPG1 262353Z 04013KT 33/16 A3001 RMK A01 T03280156  RH  036%=      5-min Rain = 0
KPG1 262354Z 03016KT 33/16 A3001 RMK A01 T03280156  RH  035%=      5-min Rain = 0
KPG1 262355Z 02014KT 33/16 A3001 RMK A01 T03270155  RH  035%=      5-min Rain = 0
KPG1 262356Z 03013KT 33/16 A3001 RMK A01 T03270155  RH  036%=      5-min Rain = 0
KPG1 262357Z 05013G18KT 33/16 A3001 RMK A01 T03260155  RH  036%=      5-min Rain = 0
KPG1 262358Z 06016KT 33/16 A3001 RMK A01 T03270157  RH  036%=      5-min Rain = 0
KPG1 262359Z 05011KT 33/16 A3001 RMK A01 T03260157  RH  036%=      5-min Rain = 0
KPG1 270000Z 06010KT 33/16 A3001 RMK A01 T03260159  RH  037%=      5-min Rain = 0
KPG1 270001Z 06014KT 33/16 A3001 RMK A01 T03280159  RH  036%=      5-min Rain = 0
KPG1 270002Z 06013KT 33/16 A3001 RMK A01 T03280158  RH  036%=      5-min Rain = 0
KPG1 270003Z 06013KT 33/16 A3001 RMK A01 T03290157  RH  036%=      5-min Rain = 0
KPG1 270004Z 06015KT 33/16 A3001 RMK A01 T03280156  RH  036%=      5-min Rain = 0
KPG1 270005Z 06015G21KT 33/16 A3001 RMK A01 T03280155  RH  035%=      5-min Rain = 0
KPG1 270006Z 06018KT 33/16 A3001 RMK A01 T03270156  RH  036%=      5-min Rain = 0
KPG1 270007Z 06017KT 33/16 A3001 RMK A01 T03250157  RH  036%=      5-min Rain = 0
KPG1 270008Z 06015KT 32/16 A3001 RMK A01 T03240157  RH  037%=      5-min Rain = 0
KPG1 270009Z 05014KT 32/16 A3001 RMK A01 T03240156  RH  036%=      5-min Rain = 0
KPG1 270010Z 07009KT 33/16 A3001 RMK A01 T03260156  RH  036%=      5-min Rain = 0
KPG1 270011Z 06014G20KT 33/16 A3001 RMK A01 T03270155  RH  035%=      5-min Rain = 0
KPG1 270012Z 05014KT 33/15 A3001 RMK A01 T03270154  RH  035%=      5-min Rain = 0
KPG1 270013Z 06013KT 33/16 A3001 RMK A01 T03260155  RH  036%=      5-min Rain = 0
KPG1 270014Z 06013KT 33/16 A3001 RMK A01 T03250156  RH  036%=      5-min Rain = 0
KPG1 270015Z 06014KT 32/16 A3001 RMK A01 T03240158  RH  037%=      5-min Rain = 0
KPG1 270016Z 09011KT 33/16 A3001 RMK A01 T03250159  RH  037%=      5-min Rain = 0
KPG1 270017Z 06011KT 33/16 A3001 RMK A01 T03250157  RH  036%=      5-min Rain = 0
KPG1 270018Z 05015KT 33/16 A3001 RMK A01 T03250157  RH  037%=      5-min Rain = 0
KPG1 270019Z 05016G21KT 32/16 A3001 RMK A01 T03240157  RH  037%=      5-min Rain = 0
KPG1 270020Z 05014KT 32/16 A3001 RMK A01 T03230157  RH  037%=      5-min Rain = 0
KPG1 270021Z 06014KT 32/16 A3001 RMK A01 T03230157  RH  037%=      5-min Rain = 0
KPG1 270022Z 06014KT 32/16 A3001 RMK A01 T03230158  RH  037%=      5-min Rain = 0
KPG1 270023Z 07015KT 32/16 A3001 RMK A01 T03230158  RH  037%=      5-min Rain = 0
KPG1 270024Z 07015KT 32/16 A3001 RMK A01 T03240158  RH  037%=      5-min Rain = 0
KPG1 270025Z 07014KT 32/16 A3001 RMK A01 T03230158  RH  037%=      5-min Rain = 0
KPG1 270026Z 06013KT 32/16 A3002 RMK A01 T03230158  RH  037%=      5-min Rain = 0
KPG1 270027Z 07011KT 32/16 A3002 RMK A01 T03230159  RH  037%=      5-min Rain = 0
KPG1 270028Z 07015KT 32/16 A3002 RMK A01 T03230159  RH  037%=      5-min Rain = 0
KPG1 270029Z 06013KT 32/16 A3002 RMK A01 T03230159  RH  037%=      5-min Rain = 0
KPG1 270030Z 05011G17KT 32/16 A3002 RMK A01 T03220159  RH  038%=      5-min Rain = 0
KPG1 270031Z 05010KT 32/16 A3002 RMK A01 T03220159  RH  038%=      5-min Rain = 0
KPG1 270032Z 06010KT 32/16 A3002 RMK A01 T03220159  RH  038%=      5-min Rain = 0
KPG1 270033Z 03012KT 32/16 A3002 RMK A01 T03230160  RH  038%=      5-min Rain = 0
KPG1 270034Z 05012KT 32/16 A3002 RMK A01 T03230159  RH  037%=      5-min Rain = 0
KPG1 270035Z 06012KT 32/16 A3002 RMK A01 T03230160  RH  038%=      5-min Rain = 0
KPG1 270036Z 06012KT 32/16 A3002 RMK A01 T03230160  RH  038%=      5-min Rain = 0
KPG1 270037Z 07015KT 32/16 A3002 RMK A01 T03220160  RH  038%=      5-min Rain = 0
KPG1 270038Z 06011G16KT 32/16 A3002 RMK A01 T03210160  RH  038%=      5-min Rain = 0
KPG1 270039Z 06012G20KT 32/16 A3002 RMK A01 T03200160  RH  038%=      5-min Rain = 0
KPG1 270040Z 06015KT 32/16 A3002 RMK A01 T03200162  RH  039%=      5-min Rain = 0
KPG1 270041Z 06014KT 32/16 A3002 RMK A01 T03190161  RH  039%=      5-min Rain = 0
KPG1 270042Z 06014KT 32/16 A3002 RMK A01 T03180161  RH  039%=      5-min Rain = 0
KPG1 270043Z 07010KT 32/16 A3002 RMK A01 T03180162  RH  039%=      5-min Rain = 0
KPG1 270044Z 04011KT 32/16 A3002 RMK A01 T03180162  RH  039%=      5-min Rain = 0
KPG1 270045Z 06011KT 32/16 A3002 RMK A01 T03190163  RH  039%=      5-min Rain = 0
KPG1 270046Z 07011KT 32/16 A3002 RMK A01 T03190162  RH  039%=      5-min Rain = 0
KPG1 270047Z 05008KT 32/16 A3002 RMK A01 T03190162  RH  039%=      5-min Rain = 0
KPG1 270048Z 05007KT 32/16 A3002 RMK A01 T03200163  RH  039%=      5-min Rain = 0
KPG1 270049Z 06008KT 32/16 A3002 RMK A01 T03210164  RH  039%=      5-min Rain = 0
KPG1 270050Z 06011KT 32/16 A3002 RMK A01 T03210164  RH  039%=      5-min Rain = 0
KPG1 270051Z 06014KT 32/16 A3002 RMK A01 T03200163  RH  039%=      5-min Rain = 0
KPG1 270052Z 07012KT 32/16 A3002 RMK A01 T03180162  RH  039%=      5-min Rain = 0
KPG1 270053Z 03010KT 32/16 A3002 RMK A01 T03170162  RH  039%=      5-min Rain = 0
KPG1 270054Z 06013G19KT 32/16 A3002 RMK A01 T03170162  RH  039%=      5-min Rain = 0
KPG1 270055Z 06013KT 32/16 A3002 RMK A01 T03170161  RH  039%=      5-min Rain = 0
KPG1 270056Z 06010KT 32/16 A3002 RMK A01 T03170161  RH  039%=      5-min Rain = 0
KPG1 270057Z 06011KT 32/16 A3002 RMK A01 T03170162  RH  039%=      5-min Rain = 0
KPG1 270058Z 05010KT 32/16 A3002 RMK A01 T03170162  RH  039%=      5-min Rain = 0
KPG1 270059Z 05010KT 32/16 A3002 RMK A01 T03170162  RH  039%=      5-min Rain = 0
KPG1 270100Z 06009KT 32/16 A3002 RMK A01 T03160163  RH  040%=      5-min Rain = 0
KPG1 270101Z 05010G15KT 32/16 A3002 RMK A01 T03170163  RH  040%=      5-min Rain = 0
KPG1 270102Z 06012KT 32/16 A3002 RMK A01 T03170163  RH  040%=      5-min Rain = 0
KPG1 270103Z 05011KT 32/16 A3003 RMK A01 T03170163  RH  040%=      5-min Rain = 0
KPG1 270104Z 06009KT 32/16 A3003 RMK A01 T03160163  RH  040%=      5-min Rain = 0
KPG1 270105Z 06014G20KT 32/16 A3003 RMK A01 T03160164  RH  040%=      5-min Rain = 0
KPG1 270106Z 05012KT 32/16 A3003 RMK A01 T03150163  RH  040%=      5-min Rain = 0
KPG1 270107Z 05011KT 32/16 A3003 RMK A01 T03150163  RH  040%=      5-min Rain = 0
KPG1 270108Z 04009KT 32/16 A3003 RMK A01 T03150163  RH  040%=      5-min Rain = 0
KPG1 270109Z 05011KT 31/16 A3003 RMK A01 T03140162  RH  040%=      5-min Rain = 0
KPG1 270110Z 06012KT 31/16 A3003 RMK A01 T03140163  RH  040%=      5-min Rain = 0
KPG1 270111Z 06012KT 31/16 A3003 RMK A01 T03140163  RH  040%=      5-min Rain = 0
KPG1 270112Z 05010KT 31/16 A3003 RMK A01 T03130163  RH  040%=      5-min Rain = 0
KPG1 270113Z 05012KT 31/16 A3003 RMK A01 T03130163  RH  040%=      5-min Rain = 0
KPG1 270114Z 06012G17KT 31/16 A3003 RMK A01 T03130163  RH  040%=      5-min Rain = 0
KPG1 270115Z 05009KT 31/16 A3003 RMK A01 T03120162  RH  041%=      5-min Rain = 0
KPG1 270116Z 04011KT 31/16 A3003 RMK A01 T03120163  RH  041%=      5-min Rain = 0
KPG1 270117Z 04012KT 31/16 A3003 RMK A01 T03110163  RH  041%=      5-min Rain = 0
KPG1 270118Z 04012KT 31/16 A3003 RMK A01 T03100163  RH  041%=      5-min Rain = 0
KPG1 270119Z 04012KT 31/16 A3003 RMK A01 T03100164  RH  041%=      5-min Rain = 0
KPG1 270120Z 04009KT 31/16 A3003 RMK A01 T03100164  RH  041%=      5-min Rain = 0
KPG1 270121Z 04010KT 31/16 A3003 RMK A01 T03100164  RH  042%=      5-min Rain = 0
KPG1 270122Z 04011KT 31/16 A3003 RMK A01 T03100163  RH  041%=      5-min Rain = 0
KPG1 270123Z 04010KT 31/16 A3003 RMK A01 T03090164  RH  042%=      5-min Rain = 0
KPG1 270124Z 04009KT 31/17 A3003 RMK A01 T03090165  RH  042%=      5-min Rain = 0
KPG1 270125Z 05009KT 31/16 A3003 RMK A01 T03090164  RH  042%=      5-min Rain = 0
KPG1 270126Z 06012G17KT 31/16 A3003 RMK A01 T03090164  RH  042%=      5-min Rain = 0
KPG1 270127Z 06012KT 31/16 A3003 RMK A01 T03080164  RH  042%=      5-min Rain = 0
KPG1 270128Z 06014G19KT 31/16 A3003 RMK A01 T03080164  RH  042%=      5-min Rain = 0
KPG1 270129Z 06011KT 31/16 A3003 RMK A01 T03080163  RH  042%=      5-min Rain = 0
KPG1 270130Z 06011KT 31/16 A3003 RMK A01 T03070163  RH  042%=      5-min Rain = 0
KPG1 270131Z 06011KT 31/16 A3003 RMK A01 T03070163  RH  042%=      5-min Rain = 0
KPG1 270132Z 04010KT 31/16 A3003 RMK A01 T03070163  RH  042%=      5-min Rain = 0
KPG1 270133Z 05009KT 31/16 A3003 RMK A01 T03060163  RH  042%=      5-min Rain = 0
KPG1 270134Z 04010KT 31/16 A3003 RMK A01 T03060163  RH  042%=      5-min Rain = 0
KPG1 270135Z 04012KT 31/16 A3003 RMK A01 T03060163  RH  042%=      5-min Rain = 0
KPG1 270136Z 03009KT 31/16 A3003 RMK A01 T03050162  RH  042%=      5-min Rain = 0
KPG1 270137Z 03013KT 31/16 A3003 RMK A01 T03050162  RH  042%=      5-min Rain = 0
KPG1 270138Z 04014KT 31/16 A3004 RMK A01 T03050161  RH  042%=      5-min Rain = 0
KPG1 270139Z 04010KT 31/16 A3004 RMK A01 T03050161  RH  042%=      5-min Rain = 0
KPG1 270140Z 04009KT 30/16 A3004 RMK A01 T03040161  RH  042%=      5-min Rain = 0
KPG1 270141Z 04011KT 30/16 A3004 RMK A01 T03040161  RH  042%=      5-min Rain = 0
KPG1 270142Z 04010KT 30/16 A3004 RMK A01 T03040161  RH  042%=      5-min Rain = 0
KPG1 270143Z 04013G18KT 30/16 A3004 RMK A01 T03040161  RH  042%=      5-min Rain = 0
KPG1 270144Z 03014KT 30/16 A3004 RMK A01 T03040161  RH  042%=      5-min Rain = 0
KPG1 270145Z 03015KT 30/16 A3004 RMK A01 T03030161  RH  042%=      5-min Rain = 0
KPG1 270146Z 03012KT 30/16 A3004 RMK A01 T03030161  RH  042%=      5-min Rain = 0
KPG1 270147Z 02015KT 30/16 A3004 RMK A01 T03030161  RH  042%=      5-min Rain = 0
KPG1 270148Z 03016KT 30/16 A3004 RMK A01 T03030161  RH  042%=      5-min Rain = 0
KPG1 270149Z 03015KT 30/16 A3004 RMK A01 T03030161  RH  042%=      5-min Rain = 0
KPG1 270150Z 03012KT 30/16 A3004 RMK A01 T03030161  RH  042%=      5-min Rain = 0
KPG1 270151Z 04011KT 30/16 A3004 RMK A01 T03030162  RH  043%=      5-min Rain = 0
KPG1 270152Z 03011KT 30/16 A3004 RMK A01 T03020161  RH  043%=      5-min Rain = 0
KPG1 270153Z 02013KT 30/16 A3004 RMK A01 T03020161  RH  043%=      5-min Rain = 0
KPG1 270154Z 03011KT 30/16 A3004 RMK A01 T03020161  RH  043%=      5-min Rain = 0
KPG1 270155Z 03010KT 30/16 A3004 RMK A01 T03020161  RH  043%=      5-min Rain = 0
KPG1 270156Z 03012KT 30/16 A3004 RMK A01 T03020162  RH  043%=      5-min Rain = 0
KPG1 270157Z 03010KT 30/16 A3004 RMK A01 T03020162  RH  043%=      5-min Rain = 0
KPG1 270158Z 03012KT 30/16 A3004 RMK A01 T03010162  RH  043%=      5-min Rain = 0
KPG1 270159Z 03011KT 30/16 A3004 RMK A01 T03010162  RH  043%=      5-min Rain = 0
KPG1 270200Z 04012KT 30/16 A3004 RMK A01 T03000162  RH  043%=      5-min Rain = 0
KPG1 270201Z 03012KT 30/16 A3004 RMK A01 T03000162  RH  043%=      5-min Rain = 0
KPG1 270202Z 03012KT 30/16 A3004 RMK A01 T03010162  RH  043%=      5-min Rain = 0
KPG1 270203Z 03013KT 30/16 A3004 RMK A01 T03000162  RH  043%=      5-min Rain = 0
KPG1 270204Z 05009KT 30/16 A3004 RMK A01 T03000162  RH  043%=      5-min Rain = 0
KPG1 270205Z 05007KT 30/16 A3004 RMK A01 T03000163  RH  044%=      5-min Rain = 0
KPG1 270206Z 04008KT 30/16 A3004 RMK A01 T02990163  RH  044%=      5-min Rain = 0
KPG1 270207Z 04009KT 30/16 A3004 RMK A01 T02980163  RH  044%=      5-min Rain = 0
KPG1 270208Z 03011KT 30/16 A3004 RMK A01 T02980163  RH  044%=      5-min Rain = 0
KPG1 270209Z 06010KT 30/16 A3004 RMK A01 T02980163  RH  044%=      5-min Rain = 0
KPG1 270210Z 06009KT 30/16 A3004 RMK A01 T02970163  RH  044%=      5-min Rain = 0
KPG1 270211Z 05008KT 30/16 A3004 RMK A01 T02970164  RH  044%=      5-min Rain = 0
KPG1 270212Z 03008KT 30/16 A3004 RMK A01 T02970164  RH  045%=      5-min Rain = 0
KPG1 270213Z 05007KT 30/16 A3004 RMK A01 T02970163  RH  045%=      5-min Rain = 0
KPG1 270214Z 05010KT 30/16 A3004 RMK A01 T02960164  RH  045%=      5-min Rain = 0
KPG1 270215Z 05010KT 30/16 A3004 RMK A01 T02960164  RH  045%=      5-min Rain = 0
KPG1 270216Z 03010KT 30/17 A3004 RMK A01 T02960165  RH  045%=      5-min Rain = 0
KPG1 270217Z 06013KT 30/17 A3005 RMK A01 T02960165  RH  045%=      5-min Rain = 0
KPG1 270218Z 06012G18KT 30/17 A3005 RMK A01 T02960165  RH  045%=      5-min Rain = 0
KPG1 270219Z 05010KT 30/17 A3005 RMK A01 T02960165  RH  045%=      5-min Rain = 0
KPG1 270220Z 04010KT 30/17 A3005 RMK A01 T02960165  RH  045%=      5-min Rain = 0
KPG1 270221Z 04012KT 30/17 A3005 RMK A01 T02960165  RH  045%=      5-min Rain = 0
KPG1 270222Z 04012KT 30/17 A3005 RMK A01 T02960166  RH  046%=      5-min Rain = 0
KPG1 270223Z 05010KT 30/17 A3005 RMK A01 T02960166  RH  046%=      5-min Rain = 0
KPG1 270224Z 04011KT 30/17 A3005 RMK A01 T02950166  RH  046%=      5-min Rain = 0
KPG1 270225Z 04012G18KT 30/17 A3005 RMK A01 T02950166  RH  046%=      5-min Rain = 0
KPG1 270226Z 04015KT 29/17 A3005 RMK A01 T02940167  RH  046%=      5-min Rain = 0
KPG1 270227Z 04012KT 29/17 A3005 RMK A01 T02940167  RH  046%=      5-min Rain = 0
KPG1 270228Z 04011KT 29/17 A3005 RMK A01 T02940168  RH  047%=      5-min Rain = 0
KPG1 270229Z 04011KT 29/17 A3005 RMK A01 T02940168  RH  047%=      5-min Rain = 0
KPG1 270230Z 04013KT 29/17 A3005 RMK A01 T02930169  RH  047%=      5-min Rain = 0
KPG1 270231Z 05011G16KT 29/17 A3005 RMK A01 T02930169  RH  047%=      5-min Rain = 0
KPG1 270232Z 06012KT 29/17 A3005 RMK A01 T02920169  RH  047%=      5-min Rain = 0
KPG1 270233Z 04009KT 29/17 A3005 RMK A01 T02920169  RH  048%=      5-min Rain = 0
KPG1 270234Z 05011KT 29/17 A3005 RMK A01 T02920170  RH  048%=      5-min Rain = 0
KPG1 270235Z 04014KT 29/17 A3005 RMK A01 T02920171  RH  048%=      5-min Rain = 0
KPG1 270236Z 04014KT 29/17 A3005 RMK A01 T02910172  RH  048%=      5-min Rain = 0
KPG1 270237Z 03012KT 29/17 A3005 RMK A01 T02910172  RH  049%=      5-min Rain = 0
KPG1 270238Z 02014KT 29/17 A3005 RMK A01 T02910173  RH  049%=      5-min Rain = 0
KPG1 270239Z 03015KT 29/17 A3005 RMK A01 T02910174  RH  049%=      5-min Rain = 0
KPG1 270240Z 03014KT 29/17 A3006 RMK A01 T02900174  RH  049%=      5-min Rain = 0
KPG1 270241Z 04011G17KT 29/17 A3006 RMK A01 T02900174  RH  050%=      5-min Rain = 0
KPG1 270242Z 04011KT 29/17 A3006 RMK A01 T02900174  RH  050%=      5-min Rain = 0
KPG1 270243Z 04011KT 29/18 A3006 RMK A01 T02890175  RH  050%=      5-min Rain = 0
KPG1 270244Z 03013KT 29/18 A3006 RMK A01 T02890175  RH  050%=      5-min Rain = 0
KPG1 270245Z 04013KT 29/18 A3006 RMK A01 T02880175  RH  051%=      5-min Rain = 0
KPG1 270246Z 03013G18KT 29/18 A3006 RMK A01 T02880176  RH  051%=      5-min Rain = 0
KPG1 270247Z 03015KT 29/18 A3006 RMK A01 T02880177  RH  051%=      5-min Rain = 0
KPG1 270248Z 02014KT 29/18 A3006 RMK A01 T02880177  RH  051%=      5-min Rain = 0
KPG1 270249Z 04013KT 29/18 A3006 RMK A01 T02870177  RH  051%=      5-min Rain = 0
KPG1 270250Z 04011KT 29/18 A3006 RMK A01 T02870178  RH  051%=      5-min Rain = 0
KPG1 270251Z 04011KT 29/18 A3006 RMK A01 T02870178  RH  052%=      5-min Rain = 0
KPG1 270252Z 04013KT 29/18 A3006 RMK A01 T02860178  RH  052%=      5-min Rain = 0
KPG1 270253Z 05011KT 29/18 A3007 RMK A01 T02860179  RH  052%=      5-min Rain = 0
KPG1 270254Z 04010KT 29/18 A3007 RMK A01 T02860179  RH  052%=      5-min Rain = 0
KPG1 270255Z 03011KT 29/18 A3007 RMK A01 T02850180  RH  053%=      5-min Rain = 0
KPG1 270256Z 04014KT 29/18 A3007 RMK A01 T02850181  RH  053%=      5-min Rain = 0
KPG1 270257Z 04011KT 29/18 A3007 RMK A01 T02850181  RH  053%=      5-min Rain = 0
KPG1 270258Z 04014KT 29/18 A3007 RMK A01 T02850182  RH  054%=      5-min Rain = 0
KPG1 270259Z 05011KT 28/18 A3007 RMK A01 T02840183  RH  054%=      5-min Rain = 0
KPG1 270300Z 04011KT 28/18 A3007 RMK A01 T02840183  RH  054%=      5-min Rain = 0
KPG1 270301Z 04013KT 28/18 A3007 RMK A01 T02830183  RH  055%=      5-min Rain = 0
KPG1 270302Z 05012KT 28/18 A3007 RMK A01 T02830184  RH  055%=      5-min Rain = 0
KPG1 270303Z 03011KT 28/18 A3007 RMK A01 T02830184  RH  055%=      5-min Rain = 0
KPG1 270304Z 04010KT 28/19 A3007 RMK A01 T02820185  RH  055%=      5-min Rain = 0
KPG1 270305Z 04011G16KT 28/19 A3007 RMK A01 T02820185  RH  056%=      5-min Rain = 0
KPG1 270306Z 03013KT 28/19 A3007 RMK A01 T02810186  RH  056%=      5-min Rain = 0
KPG1 270307Z 02015KT 28/19 A3007 RMK A01 T02810187  RH  057%=      5-min Rain = 0
KPG1 270308Z 03014KT 28/19 A3008 RMK A01 T02810188  RH  057%=      5-min Rain = 0
KPG1 270309Z 04012G17KT 28/19 A3008 RMK A01 T02800188  RH  057%=      5-min Rain = 0
KPG1 270310Z 03014G19KT 28/19 A3008 RMK A01 T02800188  RH  058%=      5-min Rain = 0
KPG1 270311Z 04016G22KT 28/19 A3008 RMK A01 T02790189  RH  058%=      5-min Rain = 0
KPG1 270312Z 04016G21KT 28/19 A3008 RMK A01 T02790189  RH  058%=      5-min Rain = 0
KPG1 270313Z 02018KT 28/19 A3008 RMK A01 T02790189  RH  058%=      5-min Rain = 0
KPG1 270314Z 03016KT 28/19 A3008 RMK A01 T02790189  RH  058%=      5-min Rain = 0
KPG1 270315Z 03016KT 28/19 A3008 RMK A01 T02790190  RH  058%=      5-min Rain = 0
KPG1 270316Z 03013KT 28/19 A3008 RMK A01 T02780190  RH  058%=      5-min Rain = 0
KPG1 270317Z 03012KT 28/19 A3008 RMK A01 T02780190  RH  059%=      5-min Rain = 0
KPG1 270318Z 04015G20KT 28/19 A3008 RMK A01 T02780190  RH  059%=      5-min Rain = 0
KPG1 270319Z 04015G20KT 28/19 A3008 RMK A01 T02780190  RH  059%=      5-min Rain = 0
KPG1 270320Z 04014KT 28/19 A3008 RMK A01 T02770190  RH  059%=      5-min Rain = 0
KPG1 270321Z 03014KT 28/19 A3008 RMK A01 T02770190  RH  059%=      5-min Rain = 0
KPG1 270322Z 03015KT 28/19 A3008 RMK A01 T02770190  RH  059%=      5-min Rain = 0
KPG1 270323Z 03013KT 28/19 A3008 RMK A01 T02770191  RH  060%=      5-min Rain = 0
KPG1 270324Z 03014KT 28/19 A3008 RMK A01 T02760191  RH  060%=      5-min Rain = 0
KPG1 270325Z 03015KT 28/19 A3008 RMK A01 T02760191  RH  060%=      5-min Rain = 0
KPG1 270326Z 03016KT 28/19 A3008 RMK A01 T02760191  RH  060%=      5-min Rain = 0
KPG1 270327Z 03016KT 28/19 A3009 RMK A01 T02750191  RH  060%=      5-min Rain = 0
KPG1 270328Z 03017KT 28/19 A3009 RMK A01 T02750192  RH  060%=      5-min Rain = 0
KPG1 270329Z 03017G22KT 28/19 A3009 RMK A01 T02750192  RH  061%=      5-min Rain = 0
KPG1 270330Z 03018KT 27/19 A3009 RMK A01 T02740192  RH  061%=      5-min Rain = 0
KPG1 270331Z 03017KT 27/19 A3009 RMK A01 T02740192  RH  061%=      5-min Rain = 0
KPG1 270332Z 03017KT 27/19 A3009 RMK A01 T02740192  RH  061%=      5-min Rain = 0
KPG1 270333Z 04014KT 27/19 A3009 RMK A01 T02740192  RH  061%=      5-min Rain = 0
KPG1 270334Z 04019KT 27/19 A3009 RMK A01 T02740192  RH  061%=      5-min Rain = 0
KPG1 270335Z 04017KT 27/19 A3009 RMK A01 T02740192  RH  061%=      5-min Rain = 0
KPG1 270336Z 04014KT 27/19 A3009 RMK A01 T02730192  RH  061%=      5-min Rain = 0
KPG1 270337Z 03014KT 27/19 A3009 RMK A01 T02730192  RH  061%=      5-min Rain = 0
KPG1 270338Z 03017KT 27/19 A3009 RMK A01 T02720192  RH  061%=      5-min Rain = 0
KPG1 270339Z 04015KT 27/19 A3009 RMK A01 T02720192  RH  062%=      5-min Rain = 0
KPG1 270340Z 04014KT 27/19 A3009 RMK A01 T02720192  RH  062%=      5-min Rain = 0
KPG1 270341Z 04015KT 27/19 A3009 RMK A01 T02710192  RH  062%=      5-min Rain = 0
KPG1 270342Z 03016KT 27/19 A3009 RMK A01 T02710192  RH  062%=      5-min Rain = 0
KPG1 270343Z 03016KT 27/19 A3009 RMK A01 T02710192  RH  062%=      5-min Rain = 0
KPG1 270344Z 03015KT 27/19 A3009 RMK A01 T02710192  RH  062%=      5-min Rain = 0
KPG1 270345Z 03016KT 27/19 A3009 RMK A01 T02700192  RH  062%=      5-min Rain = 0
KPG1 270346Z 03016KT 27/19 A3009 RMK A01 T02700191  RH  062%=      5-min Rain = 0
KPG1 270347Z 03016KT 27/19 A3009 RMK A01 T02700191  RH  062%=      5-min Rain = 0
KPG1 270348Z 03017KT 27/19 A301 RMK A01 T02700191  RH  062%=      5-min Rain = 0
KPG1 270349Z 04019KT 27/19 A301 RMK A01 T02690191  RH  062%=      5-min Rain = 0
KPG1 270350Z 04014KT 27/19 A301 RMK A01 T02690191  RH  062%=      5-min Rain = 0
KPG1 270351Z 03017KT 27/19 A301 RMK A01 T02690191  RH  062%=      5-min Rain = 0
KPG1 270352Z 03018KT 27/19 A301 RMK A01 T02690191  RH  062%=      5-min Rain = 0
KPG1 270353Z 03019KT 27/19 A301 RMK A01 T02690191  RH  062%=      5-min Rain = 0
KPG1 270354Z 03019G26KT 27/19 A301 RMK A01 T02680191  RH  062%=      5-min Rain = 0
KPG1 270355Z 03018G24KT 27/19 A301 RMK A01 T02680191  RH  063%=      5-min Rain = 0
KPG1 270356Z 03018KT 27/19 A301 RMK A01 T02680191  RH  063%=      5-min Rain = 0
KPG1 270357Z 03018G24KT 27/19 A301 RMK A01 T02680191  RH  063%=      5-min Rain = 0
KPG1 270358Z 03018G23KT 27/19 A301 RMK A01 T02680192  RH  063%=      5-min Rain = 0
KPG1 270359Z 04017G25KT 27/19 A301 RMK A01 T02670191  RH  063%=      5-min Rain = 0
KPG1 270400Z 04017KT 27/19 A301 RMK A01 T02670192  RH  063%=      5-min Rain = 0
KPG1 270401Z 04016KT 27/19 A301 RMK A01 T02670192  RH  063%=      5-min Rain = 0
KPG1 270402Z 03016KT 27/19 A301 RMK A01 T02660191  RH  063%=      5-min Rain = 0
KPG1 270403Z 03018KT 27/19 A301 RMK A01 T02660192  RH  064%=      5-min Rain = 0
KPG1 270404Z 03018KT 27/19 A301 RMK A01 T02660192  RH  064%=      5-min Rain = 0
KPG1 270405Z 03018KT 27/19 A3011 RMK A01 T02650192  RH  064%=      5-min Rain = 0
KPG1 270406Z 03017KT 27/19 A3011 RMK A01 T02650192  RH  064%=      5-min Rain = 0
KPG1 270407Z 03018KT 27/19 A3011 RMK A01 T02650193  RH  064%=      5-min Rain = 0
KPG1 270408Z 03017KT 27/19 A301 RMK A01 T02650193  RH  065%=      5-min Rain = 0
KPG1 270409Z 03018KT 26/19 A3011 RMK A01 T02640193  RH  065%=      5-min Rain = 0
KPG1 270410Z 03016KT 26/19 A3011 RMK A01 T02640193  RH  065%=      5-min Rain = 0
KPG1 270411Z 03018KT 26/19 A3011 RMK A01 T02640193  RH  065%=      5-min Rain = 0
KPG1 270412Z 03019KT 26/19 A3011 RMK A01 T02640193  RH  065%=      5-min Rain = 0
KPG1 270413Z 03018KT 26/19 A3011 RMK A01 T02630193  RH  065%=      5-min Rain = 0
KPG1 270414Z 03018KT 26/19 A3011 RMK A01 T02630193  RH  065%=      5-min Rain = 0
KPG1 270415Z 03017KT 26/19 A3011 RMK A01 T02630193  RH  065%=      5-min Rain = 0
KPG1 270416Z 03018KT 26/19 A3011 RMK A01 T02630193  RH  066%=      5-min Rain = 0
KPG1 270417Z 03018G25KT 26/19 A3011 RMK A01 T02630193  RH  066%=      5-min Rain = 0
KPG1 270418Z 03018KT 26/19 A3011 RMK A01 T02620193  RH  066%=      5-min Rain = 0
KPG1 270419Z 04015KT 26/19 A3011 RMK A01 T02620193  RH  066%=      5-min Rain = 0
KPG1 270420Z 03017KT 26/19 A3011 RMK A01 T02620193  RH  066%=      5-min Rain = 0
KPG1 270421Z 03018KT 26/19 A3011 RMK A01 T02620193  RH  066%=      5-min Rain = 0
KPG1 270422Z 03018KT 26/19 A3011 RMK A01 T02620194  RH  066%=      5-min Rain = 0
KPG1 270423Z 04017KT 26/19 A3011 RMK A01 T02620193  RH  066%=      5-min Rain = 0
KPG1 270424Z 03017KT 26/19 A3011 RMK A01 T02610193  RH  066%=      5-min Rain = 0
KPG1 270425Z 03017KT 26/19 A3011 RMK A01 T02610193  RH  066%=      5-min Rain = 0
KPG1 270426Z 03015G21KT 26/19 A3011 RMK A01 T02610194  RH  066%=      5-min Rain = 0
KPG1 270427Z 04018KT 26/19 A3011 RMK A01 T02600193  RH  066%=      5-min Rain = 0
KPG1 270428Z 04013G18KT 26/19 A3011 RMK A01 T02610193  RH  067%=      5-min Rain = 0
KPG1 270429Z 03016KT 26/19 A3011 RMK A01 T02600193  RH  067%=      5-min Rain = 0
KPG1 270430Z 04016KT 26/19 A3011 RMK A01 T02600193  RH  067%=      5-min Rain = 0
KPG1 270431Z 03013KT 26/19 A3011 RMK A01 T02600193  RH  067%=      5-min Rain = 0
KPG1 270432Z 03018KT 26/19 A3011 RMK A01 T02600193  RH  067%=      5-min Rain = 0
KPG1 270433Z 03018KT 26/19 A3011 RMK A01 T02590193  RH  067%=      5-min Rain = 0
KPG1 270434Z 03016KT 26/19 A3011 RMK A01 T02600193  RH  067%=      5-min Rain = 0
KPG1 270435Z 03015KT 26/19 A3011 RMK A01 T02590193  RH  067%=      5-min Rain = 0
KPG1 270436Z 03017KT 26/19 A3011 RMK A01 T02590193  RH  067%=      5-min Rain = 0
KPG1 270437Z 04016KT 26/19 A3012 RMK A01 T02590193  RH  067%=      5-min Rain = 0
KPG1 270438Z 04015KT 26/19 A3012 RMK A01 T02590193  RH  067%=      5-min Rain = 0
KPG1 270439Z 03015KT 26/19 A3011 RMK A01 T02590193  RH  067%=      5-min Rain = 0
KPG1 270440Z 03015KT 26/19 A3012 RMK A01 T02580193  RH  067%=      5-min Rain = 0
KPG1 270441Z 04014KT 26/19 A3012 RMK A01 T02580193  RH  067%=      5-min Rain = 0
KPG1 270442Z 03015G20KT 26/19 A3012 RMK A01 T02580193  RH  067%=      5-min Rain = 0
KPG1 270443Z 04016KT 26/19 A3012 RMK A01 T02580193  RH  067%=      5-min Rain = 0
KPG1 270444Z 03013KT 26/19 A3012 RMK A01 T02580193  RH  067%=      5-min Rain = 0
KPG1 270445Z 03014KT 26/19 A3012 RMK A01 T02580193  RH  068%=      5-min Rain = 0
KPG1 270446Z 03014KT 26/19 A3012 RMK A01 T02570193  RH  068%=      5-min Rain = 0
KPG1 270447Z 03013KT 26/19 A3012 RMK A01 T02570193  RH  068%=      5-min Rain = 0
KPG1 270448Z 04014KT 26/19 A3012 RMK A01 T02570193  RH  068%=      5-min Rain = 0
KPG1 270449Z 03012KT 26/19 A3012 RMK A01 T02570193  RH  068%=      5-min Rain = 0
KPG1 270450Z 03013KT 26/19 A3012 RMK A01 T02560193  RH  068%=      5-min Rain = 0
KPG1 270451Z 03012G17KT 26/19 A3012 RMK A01 T02560193  RH  068%=      5-min Rain = 0
KPG1 270452Z 03014KT 26/19 A3012 RMK A01 T02560192  RH  068%=      5-min Rain = 0
KPG1 270453Z 03012KT 26/19 A3012 RMK A01 T02560192  RH  068%=      5-min Rain = 0
KPG1 270454Z 02011KT 26/19 A3012 RMK A01 T02560193  RH  068%=      5-min Rain = 0
KPG1 270455Z 02011KT 26/19 A3012 RMK A01 T02550192  RH  068%=      5-min Rain = 0
KPG1 270456Z 02011KT 26/19 A3012 RMK A01 T02550193  RH  068%=      5-min Rain = 0
KPG1 270457Z 02012KT 26/19 A3012 RMK A01 T02550193  RH  068%=      5-min Rain = 0
KPG1 270458Z 02013KT 26/19 A3012 RMK A01 T02550193  RH  068%=      5-min Rain = 0
KPG1 270459Z 02012KT 26/19 A3012 RMK A01 T02550193  RH  068%=      5-min Rain = 0

Page generated in 0.1225 seconds.